DCM977 KMCO-EHRD
Flight info
| Callsign | DCM977 |
|---|---|
| Flight time | N/A |
| Altitude | 31000 |
| Route | MZULO3 LENDS M202 CARPX DCT WEAKK Y493 TUBBS/M080F310 Y493 STERN/M080F330 Y493 VEGAA M201 CARAC/N0465F330 DCT HEMMI/N0462F350 DCT PORTI/M080F350 DCT 471526N0500000W 501534N0400000W 520907N0300000W 530618N0200000W DCT MALOT/N0457F350 DCT GISTI/N0459F370 DCT MORAG DCT FACTU P155 SIVDA P137 REDFA |
| Aircraft | B738/M-SDE2E3FGHIRWXY/LB1 |
Departure
| Time | 2026-05-07 02:27 |
|---|---|
| Airport | Orlando International Airport (KMCO) |
Arrival
| Time | N/A |
|---|---|
| Airport | Rotterdam The Hague Airport (EHRD) |
| Time | Latitude | Longitude | Altitude | Speed | Heading |
|---|---|---|---|---|---|
| 2026-05-07 01:37 | 28.42133 | -81.33096 | 101 ft | 0 kts | 358° |
| 2026-05-07 02:17 | 28.42141 | -81.33096 | 101 ft | 2 kts | 358° |
| 2026-05-07 02:17 | 28.42162 | -81.33097 | 100 ft | 4 kts | 4° |
| 2026-05-07 02:18 | 28.42174 | -81.33070 | 100 ft | 4 kts | 89° |
| 2026-05-07 02:18 | 28.42174 | -81.33035 | 101 ft | 4 kts | 89° |
| 2026-05-07 02:18 | 28.42175 | -81.33001 | 101 ft | 4 kts | 89° |
| 2026-05-07 02:18 | 28.42175 | -81.32967 | 102 ft | 4 kts | 89° |
| 2026-05-07 02:19 | 28.42177 | -81.32933 | 102 ft | 4 kts | 79° |
| 2026-05-07 02:19 | 28.42200 | -81.32917 | 100 ft | 4 kts | 5° |
| 2026-05-07 02:19 | 28.42232 | -81.32916 | 102 ft | 5 kts | 0° |
| 2026-05-07 02:19 | 28.42273 | -81.32916 | 101 ft | 7 kts | 359° |
| 2026-05-07 02:20 | 28.42335 | -81.32916 | 100 ft | 11 kts | 359° |
| 2026-05-07 02:20 | 28.42421 | -81.32916 | 98 ft | 14 kts | 0° |
| 2026-05-07 02:20 | 28.42519 | -81.32916 | 99 ft | 14 kts | 360° |
| 2026-05-07 02:20 | 28.42615 | -81.32918 | 102 ft | 13 kts | 359° |
| 2026-05-07 02:21 | 28.42707 | -81.32920 | 103 ft | 13 kts | 359° |
| 2026-05-07 02:21 | 28.42798 | -81.32920 | 103 ft | 14 kts | 359° |
| 2026-05-07 02:21 | 28.42894 | -81.32921 | 104 ft | 13 kts | 359° |
| 2026-05-07 02:21 | 28.42985 | -81.32922 | 107 ft | 13 kts | 359° |
| 2026-05-07 02:22 | 28.43074 | -81.32923 | 110 ft | 13 kts | 359° |
| 2026-05-07 02:22 | 28.43164 | -81.32924 | 110 ft | 14 kts | 359° |
| 2026-05-07 02:22 | 28.43267 | -81.32925 | 106 ft | 16 kts | 359° |
| 2026-05-07 02:22 | 28.43385 | -81.32927 | 107 ft | 17 kts | 359° |
| 2026-05-07 02:23 | 28.43502 | -81.32928 | 108 ft | 17 kts | 359° |
| 2026-05-07 02:23 | 28.43629 | -81.32929 | 104 ft | 20 kts | 359° |
| 2026-05-07 02:23 | 28.43780 | -81.32931 | 100 ft | 23 kts | 359° |
| 2026-05-07 02:23 | 28.43919 | -81.32932 | 101 ft | 19 kts | 359° |
| 2026-05-07 02:24 | 28.44036 | -81.32881 | 101 ft | 18 kts | 30° |
| 2026-05-07 02:24 | 28.44165 | -81.32862 | 98 ft | 20 kts | 358° |
| 2026-05-07 02:24 | 28.44299 | -81.32863 | 102 ft | 19 kts | 360° |
| 2026-05-07 02:24 | 28.44428 | -81.32864 | 107 ft | 18 kts | 359° |
| 2026-05-07 02:25 | 28.44555 | -81.32866 | 106 ft | 19 kts | 359° |
| 2026-05-07 02:25 | 28.44684 | -81.32868 | 107 ft | 18 kts | 359° |
| 2026-05-07 02:25 | 28.44803 | -81.32853 | 110 ft | 17 kts | 47° |
| 2026-05-07 02:25 | 28.44815 | -81.32735 | 108 ft | 12 kts | 92° |
| 2026-05-07 02:26 | 28.44748 | -81.32697 | 108 ft | 12 kts | 182° |
| 2026-05-07 02:26 | 28.44623 | -81.32696 | 108 ft | 39 kts | 179° |
| 2026-05-07 02:26 | 28.44117 | -81.32691 | 103 ft | 105 kts | 179° |
| 2026-05-07 02:26 | 28.43196 | -81.32680 | 107 ft | 158 kts | 179° |
| 2026-05-07 02:27 | 28.42014 | -81.32661 | 431 ft | 173 kts | 177° |
| 2026-05-07 02:27 | 28.40821 | -81.32620 | 1170 ft | 174 kts | 175° |
| 2026-05-07 02:27 | 28.39609 | -81.32435 | 1758 ft | 179 kts | 152° |
| 2026-05-07 02:27 | 28.38610 | -81.31479 | 2054 ft | 201 kts | 130° |
| 2026-05-07 02:28 | 28.37631 | -81.30233 | 2238 ft | 222 kts | 132° |
| 2026-05-07 02:28 | 28.36562 | -81.28897 | 2599 ft | 233 kts | 132° |
| 2026-05-07 02:28 | 28.35439 | -81.27489 | 2876 ft | 250 kts | 132° |
| 2026-05-07 02:28 | 28.34239 | -81.25993 | 3360 ft | 261 kts | 133° |
| 2026-05-07 02:29 | 28.33011 | -81.24491 | 4067 ft | 264 kts | 133° |
| 2026-05-07 02:29 | 28.31739 | -81.22964 | 4768 ft | 268 kts | 134° |
| 2026-05-07 02:29 | 28.30431 | -81.21425 | 5411 ft | 273 kts | 135° |
| 2026-05-07 02:29 | 28.29093 | -81.19868 | 6077 ft | 277 kts | 136° |
| 2026-05-07 02:30 | 28.27718 | -81.18306 | 6716 ft | 282 kts | 135° |
| 2026-05-07 02:30 | 28.26339 | -81.16693 | 7345 ft | 287 kts | 134° |
| 2026-05-07 02:30 | 28.24975 | -81.15027 | 8029 ft | 289 kts | 132° |
| 2026-05-07 02:30 | 28.23618 | -81.13327 | 8642 ft | 293 kts | 132° |
| 2026-05-07 02:31 | 28.22464 | -81.11419 | 9184 ft | 297 kts | 108° |
| 2026-05-07 02:31 | 28.22310 | -81.09114 | 9801 ft | 296 kts | 76° |
| 2026-05-07 02:31 | 28.23150 | -81.06993 | 10345 ft | 300 kts | 54° |
| 2026-05-07 02:31 | 28.24593 | -81.05243 | 10504 ft | 317 kts | 41° |
| 2026-05-07 02:32 | 28.26309 | -81.03557 | 10651 ft | 335 kts | 39° |
| 2026-05-07 02:32 | 28.28133 | -81.01809 | 10799 ft | 352 kts | 39° |
| 2026-05-07 02:32 | 28.30042 | -80.99971 | 10912 ft | 368 kts | 40° |
| 2026-05-07 02:32 | 28.32033 | -80.98034 | 11034 ft | 383 kts | 40° |
| 2026-05-07 02:33 | 28.34085 | -80.96019 | 11193 ft | 395 kts | 40° |
| 2026-05-07 02:33 | 28.36178 | -80.93951 | 11563 ft | 400 kts | 40° |
| 2026-05-07 02:33 | 28.38272 | -80.91873 | 12067 ft | 400 kts | 40° |
| 2026-05-07 02:33 | 28.40350 | -80.89809 | 12539 ft | 402 kts | 40° |
| 2026-05-07 02:34 | 28.42467 | -80.87708 | 12936 ft | 405 kts | 40° |
| 2026-05-07 02:34 | 28.44595 | -80.85594 | 13357 ft | 408 kts | 41° |
| 2026-05-07 02:34 | 28.46512 | -80.83196 | 13744 ft | 413 kts | 55° |
| 2026-05-07 02:34 | 28.47797 | -80.80262 | 14144 ft | 418 kts | 70° |
| 2026-05-07 02:35 | 28.48420 | -80.77018 | 14516 ft | 423 kts | 81° |
| 2026-05-07 02:35 | 28.48757 | -80.73679 | 14856 ft | 427 kts | 82° |
| 2026-05-07 02:35 | 28.49089 | -80.70312 | 15177 ft | 430 kts | 82° |
| 2026-05-07 02:35 | 28.49434 | -80.66914 | 15514 ft | 433 kts | 81° |
| 2026-05-07 02:36 | 28.49793 | -80.63505 | 15841 ft | 436 kts | 81° |
| 2026-05-07 02:36 | 28.50163 | -80.60074 | 16157 ft | 439 kts | 81° |
| 2026-05-07 02:36 | 28.50544 | -80.56602 | 16472 ft | 442 kts | 81° |
| 2026-05-07 02:36 | 28.50923 | -80.53168 | 16777 ft | 444 kts | 81° |
| 2026-05-07 02:37 | 28.51309 | -80.49668 | 17078 ft | 447 kts | 80° |
| 2026-05-07 02:37 | 28.51696 | -80.46151 | 17387 ft | 449 kts | 80° |
| 2026-05-07 02:37 | 28.52084 | -80.42610 | 17667 ft | 452 kts | 80° |
| 2026-05-07 02:37 | 28.52472 | -80.39047 | 17955 ft | 455 kts | 80° |
| 2026-05-07 02:38 | 28.52861 | -80.35472 | 18218 ft | 457 kts | 80° |
| 2026-05-07 02:38 | 28.53254 | -80.31872 | 18492 ft | 459 kts | 79° |
| 2026-05-07 02:38 | 28.53876 | -80.28314 | 18719 ft | 458 kts | 70° |
| 2026-05-07 02:38 | 28.55008 | -80.24929 | 18967 ft | 457 kts | 63° |
| 2026-05-07 02:39 | 28.56305 | -80.21620 | 19231 ft | 458 kts | 62° |
| 2026-05-07 02:39 | 28.57594 | -80.18343 | 19478 ft | 460 kts | 62° |
| 2026-05-07 02:39 | 28.58897 | -80.15004 | 19712 ft | 463 kts | 63° |
| 2026-05-07 02:39 | 28.60197 | -80.11634 | 19940 ft | 465 kts | 63° |
| 2026-05-07 02:40 | 28.61486 | -80.08255 | 20174 ft | 467 kts | 63° |
| 2026-05-07 02:40 | 28.62775 | -80.04848 | 20396 ft | 469 kts | 63° |
| 2026-05-07 02:40 | 28.64070 | -80.01417 | 20609 ft | 472 kts | 63° |
| 2026-05-07 02:40 | 28.65365 | -79.97979 | 20831 ft | 473 kts | 63° |
| 2026-05-07 02:41 | 28.66666 | -79.94525 | 21055 ft | 474 kts | 63° |
| 2026-05-07 02:41 | 28.67966 | -79.91067 | 21259 ft | 476 kts | 63° |
| 2026-05-07 02:41 | 28.69272 | -79.87592 | 21461 ft | 478 kts | 63° |
| 2026-05-07 02:41 | 28.70584 | -79.84104 | 21649 ft | 480 kts | 63° |
| 2026-05-07 02:42 | 28.71900 | -79.80601 | 21820 ft | 481 kts | 63° |
| 2026-05-07 02:42 | 28.73222 | -79.77084 | 21986 ft | 484 kts | 63° |
| 2026-05-07 02:42 | 28.74548 | -79.73546 | 22145 ft | 486 kts | 63° |
| 2026-05-07 02:42 | 28.75859 | -79.70044 | 22327 ft | 487 kts | 63° |
| 2026-05-07 02:43 | 28.77190 | -79.66484 | 22496 ft | 488 kts | 63° |
| 2026-05-07 02:43 | 28.78522 | -79.62918 | 22668 ft | 490 kts | 63° |
| 2026-05-07 02:43 | 28.79858 | -79.59342 | 22812 ft | 492 kts | 63° |
| 2026-05-07 02:43 | 28.81287 | -79.55797 | 22931 ft | 491 kts | 57° |
| 2026-05-07 02:44 | 28.83126 | -79.52542 | 23094 ft | 487 kts | 50° |
| 2026-05-07 02:44 | 28.85134 | -79.49409 | 23284 ft | 487 kts | 49° |
| 2026-05-07 02:44 | 28.87148 | -79.46299 | 23405 ft | 489 kts | 49° |
| 2026-05-07 02:44 | 28.89153 | -79.43187 | 23524 ft | 491 kts | 49° |
| 2026-05-07 02:45 | 28.91161 | -79.40041 | 23680 ft | 492 kts | 50° |
| 2026-05-07 02:45 | 28.93168 | -79.36870 | 23798 ft | 493 kts | 50° |
| 2026-05-07 02:45 | 28.95175 | -79.33676 | 23911 ft | 495 kts | 50° |
| 2026-05-07 02:45 | 28.97183 | -79.30470 | 24030 ft | 496 kts | 50° |
| 2026-05-07 02:46 | 28.99192 | -79.27253 | 24181 ft | 497 kts | 50° |
| 2026-05-07 02:46 | 29.01205 | -79.24031 | 24308 ft | 498 kts | 50° |
| 2026-05-07 02:46 | 29.03217 | -79.20806 | 24455 ft | 499 kts | 50° |
| 2026-05-07 02:46 | 29.05210 | -79.17611 | 24565 ft | 500 kts | 50° |
| 2026-05-07 02:47 | 29.07237 | -79.14360 | 24702 ft | 501 kts | 50° |
| 2026-05-07 02:47 | 29.09267 | -79.11104 | 24820 ft | 502 kts | 50° |
| 2026-05-07 02:47 | 29.11293 | -79.07852 | 24944 ft | 503 kts | 50° |
| 2026-05-07 02:47 | 29.12638 | -79.05691 | 25022 ft | 503 kts | 50° |
| 2026-05-07 02:48 | 29.14672 | -79.02424 | 25149 ft | 504 kts | 50° |
| 2026-05-07 02:48 | 29.16705 | -78.99154 | 25252 ft | 505 kts | 50° |
| 2026-05-07 02:48 | 29.18747 | -78.95866 | 25324 ft | 506 kts | 50° |
| 2026-05-07 02:48 | 29.20794 | -78.92569 | 25426 ft | 507 kts | 50° |
| 2026-05-07 02:49 | 29.22835 | -78.89275 | 25616 ft | 506 kts | 50° |
| 2026-05-07 02:49 | 29.24869 | -78.85990 | 25845 ft | 505 kts | 50° |
| 2026-05-07 02:49 | 29.26897 | -78.82711 | 26066 ft | 503 kts | 50° |
| 2026-05-07 02:49 | 29.28919 | -78.79441 | 26260 ft | 503 kts | 50° |
| 2026-05-07 02:50 | 29.30943 | -78.76167 | 26406 ft | 503 kts | 50° |
| 2026-05-07 02:50 | 29.32967 | -78.72892 | 26580 ft | 503 kts | 50° |
| 2026-05-07 02:50 | 29.34982 | -78.69622 | 26781 ft | 503 kts | 50° |
| 2026-05-07 02:50 | 29.36784 | -78.66217 | 26931 ft | 509 kts | 58° |
| 2026-05-07 02:51 | 29.38151 | -78.62445 | 27118 ft | 514 kts | 66° |
| 2026-05-07 02:51 | 29.39497 | -78.58670 | 27307 ft | 508 kts | 57° |
| 2026-05-07 02:51 | 29.41402 | -78.55307 | 27482 ft | 499 kts | 45° |
| 2026-05-07 02:51 | 29.43779 | -78.52465 | 27697 ft | 490 kts | 35° |
| 2026-05-07 02:52 | 29.46509 | -78.50188 | 27934 ft | 481 kts | 27° |
| 2026-05-07 02:52 | 29.49308 | -78.48092 | 28189 ft | 480 kts | 27° |
| 2026-05-07 02:52 | 29.52093 | -78.45948 | 28410 ft | 481 kts | 28° |
| 2026-05-07 02:52 | 29.54813 | -78.43802 | 28618 ft | 481 kts | 29° |
| 2026-05-07 02:53 | 29.57564 | -78.41611 | 28835 ft | 480 kts | 28° |
| 2026-05-07 02:53 | 29.60310 | -78.39428 | 29085 ft | 479 kts | 28° |
| 2026-05-07 02:53 | 29.63056 | -78.37248 | 29334 ft | 478 kts | 28° |
| 2026-05-07 02:53 | 29.65794 | -78.35076 | 29557 ft | 478 kts | 28° |
| 2026-05-07 02:54 | 29.68531 | -78.32906 | 29778 ft | 477 kts | 28° |
| 2026-05-07 02:54 | 29.71265 | -78.30736 | 30016 ft | 477 kts | 28° |
| 2026-05-07 02:54 | 29.73997 | -78.28565 | 30281 ft | 476 kts | 28° |
| 2026-05-07 02:54 | 29.76711 | -78.26406 | 30540 ft | 475 kts | 28° |
| 2026-05-07 02:55 | 29.79404 | -78.24263 | 30747 ft | 475 kts | 28° |
| 2026-05-07 02:55 | 29.82123 | -78.22099 | 30948 ft | 475 kts | 28° |
| 2026-05-07 02:55 | 29.84837 | -78.19937 | 31177 ft | 474 kts | 28° |
| 2026-05-07 02:55 | 29.87549 | -78.17774 | 31417 ft | 473 kts | 28° |
| 2026-05-07 02:56 | 29.90253 | -78.15615 | 31648 ft | 473 kts | 28° |
| 2026-05-07 02:56 | 29.92956 | -78.13457 | 31858 ft | 473 kts | 28° |
| 2026-05-07 02:56 | 29.95658 | -78.11298 | 32043 ft | 473 kts | 28° |
| 2026-05-07 02:56 | 29.98362 | -78.09136 | 32213 ft | 473 kts | 28° |
| 2026-05-07 02:57 | 30.01071 | -78.06967 | 32429 ft | 472 kts | 27° |
| 2026-05-07 02:57 | 30.03767 | -78.04808 | 32670 ft | 471 kts | 27° |
| 2026-05-07 02:57 | 30.06460 | -78.02649 | 32885 ft | 470 kts | 27° |
| 2026-05-07 02:57 | 30.09148 | -78.00493 | 33062 ft | 471 kts | 27° |
| 2026-05-07 02:58 | 30.11839 | -77.98334 | 33246 ft | 471 kts | 27° |
| 2026-05-07 02:58 | 30.14523 | -77.96179 | 33454 ft | 470 kts | 27° |
| 2026-05-07 02:58 | 30.17169 | -77.94054 | 33646 ft | 469 kts | 27° |
| 2026-05-07 02:58 | 30.19854 | -77.91897 | 33828 ft | 469 kts | 27° |
| 2026-05-07 02:59 | 30.22529 | -77.89744 | 33984 ft | 469 kts | 27° |
| 2026-05-07 02:59 | 30.25209 | -77.87585 | 34153 ft | 468 kts | 27° |
| 2026-05-07 02:59 | 30.27877 | -77.85434 | 34339 ft | 467 kts | 27° |
| 2026-05-07 02:59 | 30.30549 | -77.83280 | 34510 ft | 467 kts | 27° |
| 2026-05-07 03:00 | 30.33214 | -77.81130 | 34660 ft | 467 kts | 27° |
| 2026-05-07 03:00 | 30.35873 | -77.78983 | 34806 ft | 466 kts | 26° |
| 2026-05-07 03:00 | 30.38600 | -77.76989 | 34919 ft | 458 kts | 18° |
| 2026-05-07 03:00 | 30.41507 | -77.75622 | 35019 ft | 446 kts | 8° |
| 2026-05-07 03:01 | 30.47489 | -77.74536 | 35052 ft | 432 kts | 354° |
| 2026-05-07 03:01 | 30.53523 | -77.74303 | 35042 ft | 433 kts | 354° |
| 2026-05-07 03:02 | 30.59562 | -77.74053 | 35025 ft | 434 kts | 355° |
| 2026-05-07 03:02 | 30.65562 | -77.73769 | 35026 ft | 434 kts | 355° |
| 2026-05-07 03:03 | 30.71601 | -77.73467 | 35024 ft | 434 kts | 355° |
| 2026-05-07 03:03 | 30.77625 | -77.73163 | 35030 ft | 433 kts | 355° |
| 2026-05-07 03:04 | 30.83638 | -77.72861 | 35026 ft | 432 kts | 355° |
| 2026-05-07 03:04 | 30.89641 | -77.72560 | 35024 ft | 432 kts | 355° |
| 2026-05-07 03:05 | 30.95636 | -77.72261 | 35032 ft | 431 kts | 354° |
| 2026-05-07 03:05 | 31.01630 | -77.71960 | 35041 ft | 431 kts | 354° |
| 2026-05-07 03:06 | 31.07589 | -77.71660 | 35038 ft | 431 kts | 354° |
| 2026-05-07 03:06 | 31.13580 | -77.71358 | 35038 ft | 431 kts | 354° |
| 2026-05-07 03:07 | 31.19585 | -77.71055 | 35035 ft | 432 kts | 354° |
| 2026-05-07 03:07 | 31.25565 | -77.69710 | 35034 ft | 459 kts | 18° |
| 2026-05-07 03:08 | 31.28303 | -77.67668 | 35003 ft | 477 kts | 33° |
| 2026-05-07 03:08 | 31.30565 | -77.64749 | 35046 ft | 491 kts | 45° |
| 2026-05-07 03:08 | 31.34574 | -77.58280 | 35025 ft | 495 kts | 47° |
| 2026-05-07 03:09 | 31.38556 | -77.51703 | 35019 ft | 495 kts | 46° |
| 2026-05-07 03:09 | 31.42593 | -77.45163 | 35025 ft | 495 kts | 46° |
| 2026-05-07 03:10 | 31.46658 | -77.38645 | 35032 ft | 495 kts | 46° |
| 2026-05-07 03:10 | 31.50726 | -77.32126 | 35027 ft | 495 kts | 46° |
| 2026-05-07 03:11 | 31.54790 | -77.25592 | 35027 ft | 495 kts | 46° |
| 2026-05-07 03:11 | 31.58815 | -77.19106 | 35028 ft | 495 kts | 46° |
| 2026-05-07 03:12 | 31.62863 | -77.12575 | 35027 ft | 494 kts | 46° |
| 2026-05-07 03:12 | 31.66907 | -77.06040 | 35027 ft | 494 kts | 46° |
| 2026-05-07 03:13 | 31.70943 | -76.99508 | 35029 ft | 494 kts | 46° |
| 2026-05-07 03:13 | 31.75235 | -76.93271 | 35034 ft | 488 kts | 41° |
| 2026-05-07 03:14 | 31.79705 | -76.87287 | 35027 ft | 487 kts | 40° |
| 2026-05-07 03:15 | 31.86366 | -76.78332 | 35035 ft | 486 kts | 41° |
| 2026-05-07 03:15 | 31.90790 | -76.72301 | 35022 ft | 486 kts | 41° |
| 2026-05-07 03:16 | 31.95189 | -76.66268 | 35028 ft | 486 kts | 41° |
| 2026-05-07 03:16 | 31.99594 | -76.60215 | 35029 ft | 485 kts | 41° |
| 2026-05-07 03:17 | 32.03993 | -76.54170 | 35022 ft | 486 kts | 41° |
| 2026-05-07 03:17 | 32.08390 | -76.48120 | 35020 ft | 487 kts | 41° |
| 2026-05-07 03:18 | 32.12793 | -76.42048 | 35023 ft | 487 kts | 41° |
| 2026-05-07 03:18 | 32.17171 | -76.36004 | 35014 ft | 488 kts | 41° |
| 2026-05-07 03:19 | 32.21585 | -76.29896 | 35014 ft | 488 kts | 42° |
| 2026-05-07 03:19 | 32.25993 | -76.23779 | 35003 ft | 488 kts | 41° |
| 2026-05-07 03:20 | 32.30365 | -76.17702 | 35007 ft | 488 kts | 42° |
| 2026-05-07 03:20 | 32.34772 | -76.11580 | 35019 ft | 488 kts | 42° |
| 2026-05-07 03:21 | 32.39175 | -76.05460 | 35014 ft | 487 kts | 41° |
| 2026-05-07 03:21 | 32.43535 | -75.99378 | 35009 ft | 486 kts | 42° |
| 2026-05-07 03:22 | 32.47915 | -75.93255 | 35027 ft | 487 kts | 42° |
| 2026-05-07 03:22 | 32.52296 | -75.87116 | 35021 ft | 487 kts | 42° |
| 2026-05-07 03:23 | 32.56667 | -75.80987 | 35019 ft | 487 kts | 42° |
| 2026-05-07 03:23 | 32.61038 | -75.74852 | 35020 ft | 487 kts | 42° |
| 2026-05-07 03:24 | 32.65409 | -75.68704 | 35020 ft | 487 kts | 42° |
| 2026-05-07 03:24 | 32.69749 | -75.62598 | 35022 ft | 487 kts | 42° |
| 2026-05-07 03:25 | 32.74115 | -75.56426 | 35014 ft | 487 kts | 42° |
| 2026-05-07 03:25 | 32.78476 | -75.50263 | 35009 ft | 486 kts | 42° |
| 2026-05-07 03:26 | 32.82840 | -75.44094 | 35008 ft | 487 kts | 42° |
| 2026-05-07 03:26 | 32.86631 | -75.38712 | 35015 ft | 487 kts | 42° |
| 2026-05-07 03:27 | 32.90950 | -75.32571 | 35007 ft | 487 kts | 42° |
| 2026-05-07 03:27 | 32.95295 | -75.26392 | 35004 ft | 485 kts | 42° |
| 2026-05-07 03:28 | 32.99629 | -75.20222 | 35008 ft | 485 kts | 42° |
| 2026-05-07 03:28 | 33.03797 | -75.14274 | 35006 ft | 485 kts | 42° |
| 2026-05-07 03:29 | 33.08118 | -75.08089 | 34999 ft | 485 kts | 42° |
| 2026-05-07 03:29 | 33.12408 | -75.01945 | 35003 ft | 484 kts | 41° |
| 2026-05-07 03:30 | 33.16722 | -74.95754 | 35005 ft | 484 kts | 41° |
| 2026-05-07 03:30 | 33.21027 | -74.89568 | 35001 ft | 484 kts | 41° |
| 2026-05-07 03:31 | 33.25340 | -74.83357 | 34996 ft | 484 kts | 41° |
| 2026-05-07 03:31 | 33.29619 | -74.77191 | 34993 ft | 484 kts | 41° |
| 2026-05-07 03:32 | 33.33915 | -74.70985 | 34997 ft | 484 kts | 41° |
| 2026-05-07 03:32 | 33.38201 | -74.64778 | 35001 ft | 483 kts | 41° |
| 2026-05-07 03:33 | 33.42475 | -74.58581 | 34993 ft | 482 kts | 41° |
| 2026-05-07 03:33 | 33.46740 | -74.52389 | 34999 ft | 481 kts | 41° |
| 2026-05-07 03:34 | 33.50720 | -74.46606 | 35006 ft | 481 kts | 41° |
| 2026-05-07 03:34 | 33.54952 | -74.40498 | 34997 ft | 480 kts | 40° |
| 2026-05-07 03:35 | 33.59278 | -74.34395 | 34998 ft | 479 kts | 40° |
| 2026-05-07 03:35 | 33.63597 | -74.28306 | 34995 ft | 479 kts | 40° |
| 2026-05-07 03:36 | 33.67888 | -74.22237 | 34997 ft | 478 kts | 40° |
| 2026-05-07 03:36 | 33.72183 | -74.16123 | 34994 ft | 478 kts | 40° |
| 2026-05-07 03:37 | 33.76463 | -74.10023 | 35004 ft | 477 kts | 40° |
| 2026-05-07 03:37 | 33.80734 | -74.03930 | 34997 ft | 476 kts | 40° |
| 2026-05-07 03:38 | 33.84979 | -73.97869 | 35009 ft | 476 kts | 40° |
| 2026-05-07 03:38 | 33.89241 | -73.91767 | 35004 ft | 476 kts | 40° |
| 2026-05-07 03:39 | 33.92788 | -73.86680 | 34998 ft | 475 kts | 40° |
| 2026-05-07 03:39 | 33.97733 | -73.79577 | 34997 ft | 475 kts | 40° |
| 2026-05-07 03:40 | 34.01293 | -73.74454 | 35002 ft | 476 kts | 40° |
| 2026-05-07 03:40 | 34.05514 | -73.68371 | 34997 ft | 476 kts | 40° |
| 2026-05-07 03:41 | 34.09756 | -73.62248 | 34998 ft | 476 kts | 40° |
| 2026-05-07 03:41 | 34.14006 | -73.56093 | 35000 ft | 477 kts | 40° |
| 2026-05-07 03:42 | 34.18255 | -73.49937 | 35006 ft | 477 kts | 40° |
| 2026-05-07 03:42 | 34.22506 | -73.43773 | 34996 ft | 477 kts | 40° |
| 2026-05-07 03:43 | 34.26760 | -73.37595 | 34999 ft | 477 kts | 40° |
| 2026-05-07 03:43 | 34.30982 | -73.31450 | 35006 ft | 478 kts | 40° |
| 2026-05-07 03:44 | 34.35235 | -73.25250 | 34998 ft | 478 kts | 40° |
| 2026-05-07 03:44 | 34.39473 | -73.19054 | 35003 ft | 478 kts | 40° |
| 2026-05-07 03:45 | 34.43462 | -73.13220 | 35002 ft | 477 kts | 40° |
| 2026-05-07 03:45 | 34.47673 | -73.07051 | 35012 ft | 477 kts | 40° |
| 2026-05-07 03:46 | 34.51901 | -73.00835 | 34997 ft | 476 kts | 40° |
| 2026-05-07 03:46 | 34.56111 | -72.94640 | 35003 ft | 475 kts | 40° |
| 2026-05-07 03:47 | 34.60292 | -72.88479 | 34996 ft | 474 kts | 41° |
| 2026-05-07 03:47 | 34.64477 | -72.82296 | 35000 ft | 473 kts | 41° |
| 2026-05-07 03:48 | 34.68653 | -72.76120 | 35003 ft | 472 kts | 41° |
| 2026-05-07 03:48 | 34.72827 | -72.69939 | 34992 ft | 472 kts | 41° |
| 2026-05-07 03:49 | 34.76989 | -72.63758 | 34994 ft | 471 kts | 41° |
| 2026-05-07 03:49 | 34.81116 | -72.57629 | 35003 ft | 471 kts | 41° |
| 2026-05-07 03:50 | 34.85261 | -72.51448 | 34997 ft | 471 kts | 41° |
| 2026-05-07 03:50 | 34.89409 | -72.45262 | 34995 ft | 471 kts | 41° |
| 2026-05-07 03:51 | 34.93556 | -72.39062 | 34997 ft | 472 kts | 41° |
| 2026-05-07 03:51 | 34.97852 | -72.33062 | 34982 ft | 460 kts | 31° |
| 2026-05-07 03:52 | 35.02816 | -72.28290 | 35004 ft | 454 kts | 27° |
| 2026-05-07 03:52 | 35.07806 | -72.23613 | 35001 ft | 456 kts | 28° |
| 2026-05-07 03:53 | 35.12826 | -72.18821 | 34998 ft | 458 kts | 29° |
| 2026-05-07 03:53 | 35.17838 | -72.13992 | 35002 ft | 460 kts | 29° |
| 2026-05-07 03:54 | 35.22863 | -72.09136 | 35000 ft | 461 kts | 29° |
| 2026-05-07 03:54 | 35.27898 | -72.04266 | 34999 ft | 462 kts | 29° |
| 2026-05-07 03:55 | 35.32846 | -71.99266 | 34974 ft | 472 kts | 37° |
| 2026-05-07 03:55 | 35.37125 | -71.93053 | 34977 ft | 479 kts | 43° |
| 2026-05-07 03:56 | 35.41287 | -71.86646 | 34996 ft | 480 kts | 43° |
| 2026-05-07 03:56 | 35.45488 | -71.80276 | 34984 ft | 479 kts | 43° |
| 2026-05-07 03:57 | 35.49701 | -71.73948 | 34986 ft | 478 kts | 43° |
| 2026-05-07 03:57 | 35.53903 | -71.67635 | 34983 ft | 477 kts | 43° |
| 2026-05-07 03:58 | 35.58076 | -71.61345 | 34996 ft | 476 kts | 43° |
| 2026-05-07 03:58 | 35.62275 | -71.55007 | 34978 ft | 477 kts | 43° |
| 2026-05-07 03:59 | 35.66467 | -71.48678 | 34999 ft | 477 kts | 43° |
| 2026-05-07 03:59 | 35.70632 | -71.42372 | 34987 ft | 478 kts | 43° |
| 2026-05-07 04:00 | 35.74817 | -71.36022 | 34984 ft | 478 kts | 43° |
| 2026-05-07 04:00 | 35.79001 | -71.29656 | 34995 ft | 477 kts | 43° |
| 2026-05-07 04:01 | 35.83179 | -71.23291 | 34983 ft | 477 kts | 43° |
| 2026-05-07 04:01 | 35.87351 | -71.16926 | 34991 ft | 477 kts | 43° |
| 2026-05-07 04:02 | 35.91526 | -71.10549 | 34994 ft | 477 kts | 43° |
| 2026-05-07 04:02 | 35.95688 | -71.04172 | 34977 ft | 476 kts | 43° |
| 2026-05-07 04:03 | 35.99798 | -70.97862 | 34985 ft | 474 kts | 43° |
| 2026-05-07 04:03 | 36.03927 | -70.91503 | 34980 ft | 474 kts | 43° |
| 2026-05-07 04:04 | 36.08072 | -70.85131 | 34992 ft | 476 kts | 44° |
| 2026-05-07 04:04 | 36.12225 | -70.78722 | 34968 ft | 479 kts | 44° |
| 2026-05-07 04:05 | 36.16411 | -70.72259 | 34960 ft | 482 kts | 44° |
| 2026-05-07 04:05 | 36.20585 | -70.65802 | 34955 ft | 484 kts | 44° |
| 2026-05-07 04:06 | 36.24791 | -70.59271 | 34960 ft | 485 kts | 44° |
| 2026-05-07 04:06 | 36.28996 | -70.52730 | 34951 ft | 485 kts | 44° |
| 2026-05-07 04:07 | 36.33197 | -70.46177 | 34933 ft | 485 kts | 44° |
| 2026-05-07 04:07 | 36.37394 | -70.39632 | 34944 ft | 484 kts | 44° |
| 2026-05-07 04:08 | 36.41553 | -70.33134 | 34939 ft | 483 kts | 44° |
| 2026-05-07 04:08 | 36.45730 | -70.26590 | 34942 ft | 482 kts | 44° |
| 2026-05-07 04:09 | 36.49890 | -70.20059 | 34937 ft | 481 kts | 44° |
| 2026-05-07 04:09 | 36.54039 | -70.13524 | 34942 ft | 480 kts | 44° |
| 2026-05-07 04:10 | 36.58142 | -70.07058 | 34947 ft | 479 kts | 44° |
| 2026-05-07 04:10 | 36.62266 | -70.00552 | 34943 ft | 477 kts | 44° |
| 2026-05-07 04:11 | 36.66382 | -69.94043 | 34952 ft | 477 kts | 44° |
| 2026-05-07 04:11 | 36.70498 | -69.87522 | 34942 ft | 479 kts | 44° |
| 2026-05-07 04:12 | 36.74601 | -69.81006 | 34945 ft | 480 kts | 44° |
| 2026-05-07 04:12 | 36.78730 | -69.74435 | 34944 ft | 482 kts | 44° |
| 2026-05-07 04:13 | 36.82883 | -69.67814 | 34947 ft | 484 kts | 45° |
| 2026-05-07 04:13 | 36.87044 | -69.61167 | 34951 ft | 487 kts | 45° |
| 2026-05-07 04:14 | 36.91194 | -69.54522 | 34942 ft | 488 kts | 45° |
| 2026-05-07 04:14 | 36.95378 | -69.47811 | 34934 ft | 490 kts | 45° |
| 2026-05-07 04:15 | 36.99587 | -69.41049 | 34938 ft | 491 kts | 45° |
| 2026-05-07 04:15 | 37.03760 | -69.34327 | 34932 ft | 492 kts | 45° |
| 2026-05-07 04:16 | 37.07957 | -69.27555 | 34940 ft | 492 kts | 45° |
| 2026-05-07 04:16 | 37.12150 | -69.20775 | 34928 ft | 491 kts | 45° |
| 2026-05-07 04:17 | 37.16304 | -69.14043 | 34932 ft | 490 kts | 45° |
| 2026-05-07 04:17 | 37.20482 | -69.07260 | 34934 ft | 489 kts | 45° |
| 2026-05-07 04:18 | 37.24642 | -69.00492 | 34957 ft | 489 kts | 45° |
| 2026-05-07 04:18 | 37.28765 | -68.93772 | 34958 ft | 488 kts | 45° |
| 2026-05-07 04:19 | 37.32911 | -68.87005 | 34955 ft | 488 kts | 45° |
| 2026-05-07 04:19 | 37.37056 | -68.80220 | 34958 ft | 489 kts | 45° |
| 2026-05-07 04:20 | 37.41197 | -68.73424 | 34956 ft | 490 kts | 45° |
| 2026-05-07 04:20 | 37.45342 | -68.66608 | 34953 ft | 490 kts | 45° |
| 2026-05-07 04:21 | 37.51542 | -68.56396 | 34958 ft | 491 kts | 45° |
| 2026-05-07 04:21 | 37.55693 | -68.49535 | 34952 ft | 492 kts | 45° |
| 2026-05-07 04:22 | 37.59842 | -68.42660 | 34951 ft | 493 kts | 45° |
| 2026-05-07 04:22 | 37.63998 | -68.35766 | 34941 ft | 493 kts | 45° |
| 2026-05-07 04:23 | 37.68148 | -68.28865 | 34950 ft | 494 kts | 45° |
| 2026-05-07 04:23 | 37.72295 | -68.21953 | 34947 ft | 494 kts | 45° |
| 2026-05-07 04:24 | 37.76418 | -68.15069 | 34947 ft | 494 kts | 45° |
| 2026-05-07 04:24 | 37.80570 | -68.08123 | 34944 ft | 494 kts | 45° |
| 2026-05-07 04:25 | 37.84714 | -68.01169 | 34945 ft | 494 kts | 45° |
| 2026-05-07 04:25 | 37.88827 | -67.94259 | 34946 ft | 495 kts | 45° |
| 2026-05-07 04:26 | 37.92965 | -67.87290 | 34941 ft | 495 kts | 45° |
| 2026-05-07 04:26 | 37.97098 | -67.80320 | 34934 ft | 495 kts | 45° |
| 2026-05-07 04:27 | 38.01232 | -67.73330 | 34934 ft | 495 kts | 46° |
| 2026-05-07 04:27 | 38.05354 | -67.66339 | 34934 ft | 495 kts | 46° |
| 2026-05-07 04:28 | 38.08787 | -67.60512 | 34931 ft | 495 kts | 46° |
| 2026-05-07 04:28 | 38.13576 | -67.52365 | 34938 ft | 494 kts | 46° |
| 2026-05-07 04:29 | 38.17690 | -67.45348 | 34938 ft | 494 kts | 46° |
| 2026-05-07 04:29 | 38.21100 | -67.39521 | 34935 ft | 494 kts | 46° |
| 2026-05-07 04:30 | 38.25200 | -67.32500 | 34926 ft | 494 kts | 46° |
| 2026-05-07 04:30 | 38.29290 | -67.25485 | 34923 ft | 494 kts | 46° |
| 2026-05-07 04:31 | 38.33377 | -67.18453 | 34931 ft | 494 kts | 46° |
| 2026-05-07 04:31 | 38.37468 | -67.11405 | 34924 ft | 494 kts | 46° |
| 2026-05-07 04:32 | 38.41548 | -67.04359 | 34926 ft | 494 kts | 46° |
| 2026-05-07 04:32 | 38.45630 | -66.97293 | 34928 ft | 494 kts | 46° |
| 2026-05-07 04:33 | 38.49683 | -66.90263 | 34923 ft | 494 kts | 46° |
| 2026-05-07 04:33 | 38.53752 | -66.83187 | 34924 ft | 493 kts | 46° |
| 2026-05-07 04:34 | 38.57821 | -66.76104 | 34932 ft | 493 kts | 46° |
| 2026-05-07 04:34 | 38.61857 | -66.69054 | 34926 ft | 493 kts | 46° |
| 2026-05-07 04:35 | 38.66187 | -66.62347 | 34920 ft | 484 kts | 38° |
| 2026-05-07 04:35 | 38.70872 | -66.56187 | 34915 ft | 482 kts | 37° |
| 2026-05-07 04:36 | 38.75588 | -66.50053 | 34916 ft | 482 kts | 37° |
| 2026-05-07 04:36 | 38.80258 | -66.43865 | 34913 ft | 483 kts | 38° |
| 2026-05-07 04:37 | 38.84900 | -66.37631 | 34918 ft | 483 kts | 38° |
| 2026-05-07 04:37 | 38.89516 | -66.31410 | 34920 ft | 484 kts | 38° |
| 2026-05-07 04:38 | 38.94165 | -66.25124 | 34918 ft | 485 kts | 38° |
| 2026-05-07 04:38 | 38.98824 | -66.18819 | 34910 ft | 486 kts | 38° |
| 2026-05-07 04:39 | 39.03461 | -66.12529 | 34920 ft | 487 kts | 38° |
| 2026-05-07 04:39 | 39.08125 | -66.06191 | 34920 ft | 488 kts | 38° |
| 2026-05-07 04:40 | 39.12799 | -65.99824 | 34921 ft | 490 kts | 39° |
| 2026-05-07 04:40 | 39.17481 | -65.93428 | 34927 ft | 490 kts | 39° |
| 2026-05-07 04:41 | 39.22146 | -65.87040 | 34915 ft | 488 kts | 39° |
| 2026-05-07 04:41 | 39.26796 | -65.80665 | 34933 ft | 487 kts | 39° |
| 2026-05-07 04:42 | 39.31427 | -65.74305 | 34918 ft | 485 kts | 39° |
| 2026-05-07 04:42 | 39.36040 | -65.67955 | 34923 ft | 484 kts | 39° |
| 2026-05-07 04:43 | 39.40632 | -65.61626 | 34920 ft | 482 kts | 39° |
| 2026-05-07 04:43 | 39.45205 | -65.55313 | 34947 ft | 482 kts | 39° |
| 2026-05-07 04:44 | 39.49780 | -65.48972 | 34974 ft | 481 kts | 39° |
| 2026-05-07 04:44 | 39.54358 | -65.42615 | 34989 ft | 482 kts | 39° |
| 2026-05-07 04:45 | 39.58949 | -65.36241 | 34981 ft | 485 kts | 39° |
| 2026-05-07 04:45 | 39.63528 | -65.29866 | 34996 ft | 487 kts | 39° |
| 2026-05-07 04:46 | 39.68141 | -65.23427 | 34982 ft | 486 kts | 40° |
| 2026-05-07 04:46 | 39.72748 | -65.16975 | 34980 ft | 487 kts | 40° |
| 2026-05-07 04:47 | 39.77355 | -65.10516 | 34986 ft | 486 kts | 40° |
| 2026-05-07 04:47 | 39.81945 | -65.04064 | 34977 ft | 486 kts | 40° |
| 2026-05-07 04:48 | 39.86512 | -64.97639 | 34983 ft | 485 kts | 40° |
| 2026-05-07 04:48 | 39.91085 | -64.91189 | 34979 ft | 483 kts | 40° |
| 2026-05-07 04:49 | 39.95632 | -64.84753 | 34970 ft | 482 kts | 40° |
| 2026-05-07 04:49 | 40.00167 | -64.78327 | 34974 ft | 480 kts | 40° |
| 2026-05-07 04:50 | 40.04687 | -64.71908 | 34962 ft | 479 kts | 41° |
| 2026-05-07 04:50 | 40.09185 | -64.65511 | 35065 ft | 483 kts | 41° |
| 2026-05-07 04:51 | 40.11459 | -64.62270 | 35274 ft | 482 kts | 41° |
| 2026-05-07 04:51 | 40.13723 | -64.59035 | 35535 ft | 479 kts | 41° |
| 2026-05-07 04:51 | 40.15975 | -64.55816 | 35703 ft | 479 kts | 41° |
| 2026-05-07 04:51 | 40.18225 | -64.52599 | 35834 ft | 480 kts | 41° |
| 2026-05-07 04:52 | 40.20478 | -64.49375 | 35994 ft | 479 kts | 41° |
| 2026-05-07 04:52 | 40.22695 | -64.46198 | 36153 ft | 479 kts | 41° |
| 2026-05-07 04:52 | 40.24940 | -64.42978 | 36342 ft | 477 kts | 41° |
| 2026-05-07 04:52 | 40.27181 | -64.39762 | 36461 ft | 478 kts | 41° |
| 2026-05-07 04:53 | 40.31663 | -64.33318 | 36696 ft | 478 kts | 41° |
| 2026-05-07 04:53 | 40.33888 | -64.30110 | 36945 ft | 474 kts | 41° |
| 2026-05-07 04:53 | 40.36108 | -64.26908 | 36979 ft | 474 kts | 40° |
| 2026-05-07 04:54 | 40.40520 | -64.20531 | 36980 ft | 467 kts | 40° |
| 2026-05-07 04:54 | 40.44860 | -64.14245 | 36991 ft | 464 kts | 40° |
| 2026-05-07 04:55 | 40.49172 | -64.07996 | 36993 ft | 464 kts | 40° |
| 2026-05-07 04:55 | 40.53506 | -64.01703 | 36993 ft | 463 kts | 41° |
| 2026-05-07 04:56 | 40.57832 | -63.95404 | 36998 ft | 464 kts | 41° |
| 2026-05-07 04:56 | 40.62160 | -63.89089 | 36986 ft | 464 kts | 41° |
| 2026-05-07 04:57 | 40.66451 | -63.82813 | 36994 ft | 464 kts | 41° |
| 2026-05-07 04:57 | 40.70790 | -63.76454 | 36991 ft | 465 kts | 41° |
| 2026-05-07 04:58 | 40.75120 | -63.70094 | 36987 ft | 465 kts | 41° |
| 2026-05-07 04:58 | 40.79418 | -63.63769 | 36995 ft | 466 kts | 42° |
| 2026-05-07 04:59 | 40.83746 | -63.57385 | 36986 ft | 466 kts | 42° |
| 2026-05-07 04:59 | 40.88082 | -63.50976 | 36993 ft | 466 kts | 42° |
| 2026-05-07 05:00 | 40.92383 | -63.44611 | 37007 ft | 466 kts | 42° |
| 2026-05-07 05:00 | 40.96691 | -63.38214 | 37105 ft | 464 kts | 42° |
| 2026-05-07 05:01 | 41.00980 | -63.31832 | 37118 ft | 464 kts | 43° |
| 2026-05-07 05:01 | 41.05268 | -63.25443 | 37134 ft | 464 kts | 43° |
| 2026-05-07 05:02 | 41.09561 | -63.19031 | 37132 ft | 465 kts | 43° |
| 2026-05-07 05:02 | 41.13857 | -63.12602 | 37131 ft | 465 kts | 43° |
| 2026-05-07 05:03 | 41.18129 | -63.06192 | 37129 ft | 466 kts | 43° |
| 2026-05-07 05:03 | 41.22425 | -62.99734 | 37130 ft | 466 kts | 43° |
| 2026-05-07 05:04 | 41.26721 | -62.93262 | 37131 ft | 466 kts | 43° |
| 2026-05-07 05:04 | 41.30990 | -62.86818 | 37128 ft | 467 kts | 43° |
| 2026-05-07 05:05 | 41.35279 | -62.80326 | 37125 ft | 466 kts | 43° |
| 2026-05-07 05:05 | 41.39552 | -62.73844 | 37129 ft | 465 kts | 44° |
| 2026-05-07 05:06 | 41.43818 | -62.67363 | 37126 ft | 465 kts | 44° |
| 2026-05-07 05:06 | 41.48077 | -62.60874 | 37109 ft | 464 kts | 44° |
| 2026-05-07 05:07 | 41.52326 | -62.54386 | 37112 ft | 463 kts | 44° |
| 2026-05-07 05:07 | 41.56533 | -62.47953 | 37094 ft | 462 kts | 44° |
| 2026-05-07 05:08 | 41.60757 | -62.41481 | 37085 ft | 461 kts | 44° |
| 2026-05-07 05:08 | 41.64965 | -62.35018 | 37083 ft | 461 kts | 44° |
| 2026-05-07 05:09 | 41.69166 | -62.28552 | 37110 ft | 460 kts | 44° |
| 2026-05-07 05:09 | 41.73360 | -62.22082 | 37108 ft | 460 kts | 44° |
| 2026-05-07 05:10 | 41.77550 | -62.15605 | 37107 ft | 460 kts | 45° |
| 2026-05-07 05:10 | 41.81734 | -62.09120 | 37106 ft | 460 kts | 44° |
| 2026-05-07 05:11 | 41.85893 | -62.02663 | 37101 ft | 460 kts | 45° |
| 2026-05-07 05:11 | 41.90079 | -61.96146 | 37109 ft | 461 kts | 45° |
| 2026-05-07 05:12 | 41.94267 | -61.89613 | 37112 ft | 461 kts | 45° |
| 2026-05-07 05:12 | 41.98454 | -61.83071 | 37109 ft | 462 kts | 45° |
| 2026-05-07 05:13 | 42.02641 | -61.76512 | 37113 ft | 462 kts | 45° |
| 2026-05-07 05:13 | 42.06829 | -61.69936 | 37113 ft | 463 kts | 45° |
| 2026-05-07 05:14 | 42.11015 | -61.63349 | 37108 ft | 463 kts | 45° |
| 2026-05-07 05:14 | 42.15198 | -61.56750 | 37111 ft | 463 kts | 45° |
| 2026-05-07 05:15 | 42.19382 | -61.50136 | 37120 ft | 463 kts | 45° |
| 2026-05-07 05:15 | 42.23574 | -61.43493 | 37123 ft | 464 kts | 46° |
| 2026-05-07 05:16 | 42.27732 | -61.36892 | 37119 ft | 464 kts | 46° |
| 2026-05-07 05:16 | 42.31909 | -61.30246 | 37120 ft | 464 kts | 46° |
| 2026-05-07 05:17 | 42.36088 | -61.23579 | 37128 ft | 464 kts | 46° |
| 2026-05-07 05:17 | 42.39489 | -61.17943 | 37127 ft | 465 kts | 50° |
| 2026-05-07 05:18 | 42.43250 | -61.10809 | 37130 ft | 466 kts | 52° |
| 2026-05-07 05:18 | 42.46935 | -61.03598 | 37135 ft | 465 kts | 52° |
| 2026-05-07 05:19 | 42.50639 | -60.96414 | 37123 ft | 465 kts | 52° |
| 2026-05-07 05:19 | 42.54349 | -60.89258 | 37130 ft | 464 kts | 52° |
| 2026-05-07 05:20 | 42.58073 | -60.82082 | 37109 ft | 463 kts | 52° |
| 2026-05-07 05:20 | 42.61774 | -60.74927 | 37108 ft | 463 kts | 52° |
| 2026-05-07 05:21 | 42.67292 | -60.64226 | 37098 ft | 462 kts | 53° |
| 2026-05-07 05:22 | 42.70975 | -60.57065 | 37102 ft | 462 kts | 53° |
| 2026-05-07 05:22 | 42.74651 | -60.49900 | 37113 ft | 461 kts | 53° |
| 2026-05-07 05:23 | 42.78321 | -60.42729 | 37113 ft | 461 kts | 53° |
| 2026-05-07 05:23 | 42.81989 | -60.35541 | 37115 ft | 461 kts | 53° |
| 2026-05-07 05:24 | 42.85636 | -60.28381 | 37114 ft | 461 kts | 53° |
| 2026-05-07 05:24 | 42.89295 | -60.21180 | 37107 ft | 461 kts | 53° |
| 2026-05-07 05:25 | 42.92924 | -60.14015 | 37113 ft | 461 kts | 53° |
| 2026-05-07 05:25 | 42.96576 | -60.06792 | 37106 ft | 461 kts | 53° |
| 2026-05-07 05:26 | 43.00222 | -59.99565 | 37121 ft | 462 kts | 53° |
| 2026-05-07 05:26 | 43.03850 | -59.92287 | 37125 ft | 463 kts | 54° |
| 2026-05-07 05:27 | 43.07441 | -59.85027 | 37131 ft | 464 kts | 54° |
| 2026-05-07 05:27 | 43.11061 | -59.77690 | 37130 ft | 465 kts | 54° |
| 2026-05-07 05:28 | 43.14678 | -59.70345 | 37129 ft | 465 kts | 54° |
| 2026-05-07 05:28 | 43.18298 | -59.62983 | 37132 ft | 466 kts | 54° |
| 2026-05-07 05:29 | 43.21926 | -59.55594 | 37128 ft | 467 kts | 54° |
| 2026-05-07 05:29 | 43.25549 | -59.48186 | 37132 ft | 468 kts | 54° |
| 2026-05-07 05:30 | 43.29159 | -59.40787 | 37133 ft | 469 kts | 54° |
| 2026-05-07 05:30 | 43.32789 | -59.33330 | 37130 ft | 470 kts | 54° |
| 2026-05-07 05:31 | 43.36419 | -59.25855 | 37130 ft | 470 kts | 55° |
| 2026-05-07 05:31 | 43.40029 | -59.18404 | 37129 ft | 470 kts | 55° |
| 2026-05-07 05:32 | 43.43653 | -59.10903 | 37133 ft | 470 kts | 55° |
| 2026-05-07 05:32 | 43.47273 | -59.03394 | 37127 ft | 470 kts | 55° |
| 2026-05-07 05:33 | 43.50882 | -58.95883 | 37129 ft | 470 kts | 55° |
| 2026-05-07 05:33 | 43.54485 | -58.88371 | 37128 ft | 469 kts | 55° |
| 2026-05-07 05:34 | 43.58072 | -58.80868 | 37131 ft | 468 kts | 55° |
| 2026-05-07 05:34 | 43.61646 | -58.73374 | 37129 ft | 466 kts | 55° |
| 2026-05-07 05:35 | 43.65177 | -58.65953 | 37131 ft | 465 kts | 56° |
| 2026-05-07 05:35 | 43.68719 | -58.58486 | 37130 ft | 463 kts | 56° |
| 2026-05-07 05:36 | 43.72244 | -58.51041 | 37130 ft | 462 kts | 56° |
| 2026-05-07 05:36 | 43.75752 | -58.43616 | 37132 ft | 460 kts | 56° |
| 2026-05-07 05:37 | 43.79238 | -58.36212 | 37128 ft | 458 kts | 56° |
| 2026-05-07 05:37 | 43.82707 | -58.28827 | 37131 ft | 457 kts | 56° |
| 2026-05-07 05:38 | 43.86161 | -58.21457 | 37137 ft | 455 kts | 56° |
| 2026-05-07 05:38 | 43.89584 | -58.14132 | 37138 ft | 454 kts | 56° |
| 2026-05-07 05:39 | 43.93019 | -58.06767 | 37140 ft | 454 kts | 56° |
| 2026-05-07 05:39 | 43.96442 | -57.99399 | 37138 ft | 454 kts | 56° |
| 2026-05-07 05:40 | 43.99866 | -57.92020 | 37130 ft | 454 kts | 56° |
| 2026-05-07 05:40 | 44.03289 | -57.84624 | 37130 ft | 454 kts | 56° |
| 2026-05-07 05:41 | 44.06708 | -57.77219 | 37129 ft | 455 kts | 56° |
| 2026-05-07 05:41 | 44.10100 | -57.69849 | 37131 ft | 455 kts | 56° |
| 2026-05-07 05:42 | 44.13519 | -57.62407 | 37131 ft | 456 kts | 56° |
| 2026-05-07 05:42 | 44.16938 | -57.54941 | 37126 ft | 457 kts | 56° |
| 2026-05-07 05:43 | 44.20358 | -57.47454 | 37128 ft | 458 kts | 56° |
| 2026-05-07 05:43 | 44.23780 | -57.39942 | 37131 ft | 459 kts | 56° |
| 2026-05-07 05:44 | 44.27212 | -57.32391 | 37130 ft | 460 kts | 56° |
| 2026-05-07 05:44 | 44.30619 | -57.24875 | 37139 ft | 461 kts | 56° |
| 2026-05-07 05:45 | 44.34053 | -57.17279 | 37138 ft | 463 kts | 56° |
| 2026-05-07 05:45 | 44.37489 | -57.09659 | 37140 ft | 464 kts | 56° |
| 2026-05-07 05:46 | 44.40933 | -57.01999 | 37139 ft | 465 kts | 56° |
| 2026-05-07 05:46 | 44.44359 | -56.94362 | 37140 ft | 467 kts | 56° |
| 2026-05-07 05:47 | 44.47813 | -56.86638 | 37137 ft | 467 kts | 57° |
| 2026-05-07 05:47 | 44.51261 | -56.78907 | 37143 ft | 468 kts | 57° |
| 2026-05-07 05:48 | 44.54721 | -56.71132 | 37149 ft | 469 kts | 57° |
| 2026-05-07 05:48 | 44.58151 | -56.63404 | 37150 ft | 470 kts | 57° |
| 2026-05-07 05:49 | 44.61614 | -56.55574 | 37143 ft | 471 kts | 57° |
| 2026-05-07 05:49 | 44.65067 | -56.47747 | 37150 ft | 471 kts | 57° |
| 2026-05-07 05:50 | 44.68497 | -56.39953 | 37148 ft | 472 kts | 57° |
| 2026-05-07 05:50 | 44.71939 | -56.32112 | 37153 ft | 471 kts | 57° |
| 2026-05-07 05:51 | 44.75379 | -56.24250 | 37153 ft | 471 kts | 57° |
| 2026-05-07 05:51 | 44.78814 | -56.16380 | 37158 ft | 471 kts | 57° |
| 2026-05-07 05:52 | 44.82210 | -56.08561 | 37177 ft | 471 kts | 57° |
| 2026-05-07 05:52 | 44.85660 | -56.00699 | 37194 ft | 471 kts | 57° |
| 2026-05-07 05:53 | 44.89037 | -55.92800 | 37183 ft | 469 kts | 56° |
| 2026-05-07 05:53 | 44.92397 | -55.84940 | 37211 ft | 469 kts | 57° |
| 2026-05-07 05:54 | 44.95838 | -55.77106 | 37210 ft | 469 kts | 56° |
| 2026-05-07 05:54 | 44.99260 | -55.69246 | 37210 ft | 470 kts | 58° |
| 2026-05-07 05:55 | 45.02567 | -55.61290 | 37215 ft | 473 kts | 57° |
| 2026-05-07 05:55 | 45.05964 | -55.53295 | 37201 ft | 475 kts | 57° |
| 2026-05-07 05:56 | 45.09390 | -55.45286 | 37207 ft | 476 kts | 56° |
| 2026-05-07 05:56 | 45.12980 | -55.37385 | 37186 ft | 475 kts | 57° |
| 2026-05-07 05:57 | 45.16363 | -55.29443 | 37205 ft | 469 kts | 56° |
| 2026-05-07 05:57 | 45.19708 | -55.21524 | 37226 ft | 469 kts | 58° |
| 2026-05-07 05:58 | 45.23086 | -55.13572 | 37209 ft | 470 kts | 57° |
| 2026-05-07 05:58 | 45.26381 | -55.05634 | 37208 ft | 468 kts | 57° |
| 2026-05-07 05:59 | 45.29818 | -54.97764 | 37207 ft | 469 kts | 56° |
| 2026-05-07 05:59 | 45.33254 | -54.89890 | 37198 ft | 468 kts | 57° |
| 2026-05-07 06:00 | 45.36579 | -54.81920 | 37212 ft | 468 kts | 58° |
| 2026-05-07 06:00 | 45.39936 | -54.74030 | 37204 ft | 468 kts | 56° |
| 2026-05-07 06:01 | 45.43315 | -54.66106 | 37199 ft | 464 kts | 57° |
| 2026-05-07 06:01 | 45.46555 | -54.58162 | 37244 ft | 461 kts | 59° |
| 2026-05-07 06:02 | 45.49864 | -54.50290 | 37216 ft | 460 kts | 55° |
| 2026-05-07 06:02 | 45.53132 | -54.42481 | 37224 ft | 463 kts | 58° |
| 2026-05-07 06:03 | 45.56410 | -54.34560 | 37224 ft | 463 kts | 58° |
| 2026-05-07 06:03 | 45.59718 | -54.26700 | 37231 ft | 463 kts | 56° |
| 2026-05-07 06:04 | 45.63020 | -54.18820 | 37206 ft | 461 kts | 58° |
| 2026-05-07 06:04 | 45.66208 | -54.10900 | 37198 ft | 459 kts | 58° |
| 2026-05-07 06:05 | 45.69436 | -54.02992 | 37222 ft | 460 kts | 57° |
| 2026-05-07 06:05 | 45.72144 | -53.96465 | 37214 ft | 458 kts | 58° |
| 2026-05-07 06:06 | 45.75922 | -53.87342 | 37232 ft | 457 kts | 58° |
| 2026-05-07 06:06 | 45.78594 | -53.80823 | 37231 ft | 456 kts | 58° |
| 2026-05-07 06:07 | 45.81800 | -53.72954 | 37235 ft | 456 kts | 58° |
| 2026-05-07 06:07 | 45.84993 | -53.65092 | 37225 ft | 456 kts | 58° |
| 2026-05-07 06:08 | 45.88191 | -53.57199 | 37232 ft | 458 kts | 58° |
| 2026-05-07 06:08 | 45.91393 | -53.49289 | 37236 ft | 458 kts | 58° |
| 2026-05-07 06:09 | 45.94565 | -53.41411 | 37233 ft | 459 kts | 58° |
| 2026-05-07 06:09 | 45.97760 | -53.33453 | 37250 ft | 460 kts | 58° |
| 2026-05-07 06:10 | 46.00966 | -53.25440 | 37239 ft | 462 kts | 58° |
| 2026-05-07 06:10 | 46.04178 | -53.17394 | 37243 ft | 463 kts | 58° |
| 2026-05-07 06:11 | 46.07363 | -53.09397 | 37235 ft | 463 kts | 58° |
| 2026-05-07 06:11 | 46.10559 | -53.01349 | 37236 ft | 462 kts | 58° |
| 2026-05-07 06:12 | 46.13751 | -52.93284 | 37238 ft | 461 kts | 58° |
| 2026-05-07 06:12 | 46.16923 | -52.85246 | 37235 ft | 460 kts | 58° |
| 2026-05-07 06:13 | 46.20078 | -52.77225 | 37239 ft | 459 kts | 58° |
| 2026-05-07 06:13 | 46.23223 | -52.69219 | 37240 ft | 458 kts | 58° |
| 2026-05-07 06:14 | 46.26332 | -52.61269 | 37252 ft | 457 kts | 58° |
| 2026-05-07 06:14 | 46.29460 | -52.53259 | 37260 ft | 457 kts | 58° |
| 2026-05-07 06:15 | 46.32579 | -52.45241 | 37255 ft | 456 kts | 58° |
| 2026-05-07 06:15 | 46.35680 | -52.37229 | 37262 ft | 456 kts | 58° |
| 2026-05-07 06:16 | 46.38767 | -52.29252 | 37256 ft | 456 kts | 59° |
| 2026-05-07 06:16 | 46.41871 | -52.21209 | 37264 ft | 457 kts | 59° |
| 2026-05-07 06:17 | 46.44976 | -52.13121 | 37258 ft | 459 kts | 59° |
| 2026-05-07 06:17 | 46.48080 | -52.05024 | 37263 ft | 459 kts | 59° |
| 2026-05-07 06:18 | 46.51173 | -51.96965 | 37259 ft | 460 kts | 58° |
| 2026-05-07 06:18 | 46.54340 | -51.88880 | 37257 ft | 460 kts | 58° |
| 2026-05-07 06:19 | 46.57512 | -51.80803 | 37257 ft | 460 kts | 58° |
| 2026-05-07 06:19 | 46.60670 | -51.72706 | 37259 ft | 460 kts | 58° |
| 2026-05-07 06:20 | 46.63801 | -51.64640 | 37249 ft | 460 kts | 58° |
| 2026-05-07 06:20 | 46.66938 | -51.56527 | 37247 ft | 460 kts | 58° |
| 2026-05-07 06:21 | 46.70074 | -51.48401 | 37250 ft | 460 kts | 58° |
| 2026-05-07 06:21 | 46.73199 | -51.40278 | 37249 ft | 460 kts | 58° |
| 2026-05-07 06:22 | 46.76322 | -51.32135 | 37248 ft | 460 kts | 58° |
| 2026-05-07 06:22 | 46.80993 | -51.19911 | 37246 ft | 460 kts | 58° |
| 2026-05-07 06:23 | 46.84097 | -51.11754 | 37250 ft | 459 kts | 58° |
| 2026-05-07 06:23 | 46.87172 | -51.03650 | 37248 ft | 459 kts | 58° |
| 2026-05-07 06:24 | 46.90265 | -50.95481 | 37248 ft | 458 kts | 59° |
| 2026-05-07 06:24 | 46.93339 | -50.87332 | 37250 ft | 458 kts | 59° |
| 2026-05-07 06:25 | 46.96412 | -50.79155 | 37248 ft | 458 kts | 59° |
| 2026-05-07 06:25 | 46.99458 | -50.71032 | 37248 ft | 457 kts | 59° |
| 2026-05-07 06:26 | 47.02520 | -50.62843 | 37250 ft | 457 kts | 59° |
| 2026-05-07 06:26 | 47.05549 | -50.54717 | 37246 ft | 457 kts | 59° |
| 2026-05-07 06:27 | 47.08587 | -50.46541 | 37250 ft | 456 kts | 59° |
| 2026-05-07 06:27 | 47.11616 | -50.38362 | 37250 ft | 456 kts | 59° |
| 2026-05-07 06:28 | 47.14649 | -50.30151 | 37248 ft | 455 kts | 59° |
| 2026-05-07 06:28 | 47.17641 | -50.22021 | 37248 ft | 455 kts | 59° |
| 2026-05-07 06:29 | 47.20647 | -50.13827 | 37249 ft | 454 kts | 59° |
| 2026-05-07 06:29 | 47.23641 | -50.05648 | 37249 ft | 454 kts | 59° |
| 2026-05-07 06:30 | 47.26626 | -49.97462 | 37249 ft | 453 kts | 59° |
| 2026-05-07 06:30 | 47.29592 | -49.89290 | 37246 ft | 451 kts | 59° |
| 2026-05-07 06:31 | 47.32540 | -49.81136 | 37250 ft | 450 kts | 59° |
| 2026-05-07 06:31 | 47.35460 | -49.73039 | 37247 ft | 449 kts | 59° |
| 2026-05-07 06:32 | 47.38395 | -49.64879 | 37249 ft | 449 kts | 60° |
| 2026-05-07 06:32 | 47.41324 | -49.56711 | 37250 ft | 449 kts | 59° |
| 2026-05-07 06:33 | 47.44220 | -49.48605 | 37249 ft | 449 kts | 60° |
| 2026-05-07 06:33 | 47.47134 | -49.40424 | 37249 ft | 449 kts | 60° |
| 2026-05-07 06:34 | 47.50039 | -49.32244 | 37251 ft | 450 kts | 60° |
| 2026-05-07 06:34 | 47.52943 | -49.24042 | 37247 ft | 451 kts | 60° |
| 2026-05-07 06:35 | 47.55856 | -49.15786 | 37251 ft | 452 kts | 60° |
| 2026-05-07 06:35 | 47.58746 | -49.07573 | 37249 ft | 453 kts | 60° |
| 2026-05-07 06:36 | 47.61659 | -48.99265 | 37252 ft | 454 kts | 60° |
| 2026-05-07 06:36 | 47.64580 | -48.90904 | 37249 ft | 456 kts | 60° |
| 2026-05-07 06:37 | 47.67501 | -48.82525 | 37252 ft | 457 kts | 60° |
| 2026-05-07 06:37 | 47.70415 | -48.74142 | 37238 ft | 458 kts | 60° |
| 2026-05-07 06:38 | 47.73331 | -48.65716 | 37226 ft | 458 kts | 61° |
| 2026-05-07 06:38 | 47.76242 | -48.57282 | 37219 ft | 458 kts | 61° |
| 2026-05-07 06:39 | 47.79126 | -48.48905 | 37220 ft | 457 kts | 61° |
| 2026-05-07 06:39 | 47.82014 | -48.40483 | 37220 ft | 456 kts | 61° |
| 2026-05-07 06:40 | 47.84889 | -48.32067 | 37222 ft | 456 kts | 61° |
| 2026-05-07 06:40 | 47.87761 | -48.23635 | 37221 ft | 455 kts | 61° |
| 2026-05-07 06:41 | 47.90616 | -48.15227 | 37220 ft | 455 kts | 62° |
| 2026-05-07 06:41 | 47.93464 | -48.06809 | 37218 ft | 454 kts | 62° |
| 2026-05-07 06:42 | 47.96305 | -47.98387 | 37220 ft | 454 kts | 62° |
| 2026-05-07 06:42 | 47.99124 | -47.90005 | 37220 ft | 453 kts | 62° |
| 2026-05-07 06:43 | 48.01946 | -47.81585 | 37220 ft | 453 kts | 62° |
| 2026-05-07 06:43 | 48.04765 | -47.73145 | 37221 ft | 453 kts | 62° |
| 2026-05-07 06:44 | 48.07576 | -47.64703 | 37222 ft | 454 kts | 62° |
| 2026-05-07 06:44 | 48.10370 | -47.56285 | 37214 ft | 454 kts | 62° |
| 2026-05-07 06:45 | 48.13175 | -47.47809 | 37212 ft | 454 kts | 62° |
| 2026-05-07 06:45 | 48.15974 | -47.39322 | 37212 ft | 454 kts | 62° |
| 2026-05-07 06:46 | 48.18769 | -47.30818 | 37213 ft | 454 kts | 62° |
| 2026-05-07 06:46 | 48.21553 | -47.22310 | 37208 ft | 454 kts | 62° |
| 2026-05-07 06:47 | 48.24320 | -47.13832 | 37213 ft | 454 kts | 62° |
| 2026-05-07 06:47 | 48.27090 | -47.05311 | 37209 ft | 454 kts | 62° |
| 2026-05-07 06:48 | 48.29859 | -46.96768 | 37210 ft | 454 kts | 62° |
| 2026-05-07 06:48 | 48.32600 | -46.88290 | 37213 ft | 454 kts | 62° |
| 2026-05-07 06:49 | 48.35354 | -46.79741 | 37213 ft | 454 kts | 62° |
| 2026-05-07 06:49 | 48.38103 | -46.71176 | 37212 ft | 454 kts | 62° |
| 2026-05-07 06:50 | 48.40846 | -46.62602 | 37212 ft | 454 kts | 62° |
| 2026-05-07 06:50 | 48.43585 | -46.54015 | 37213 ft | 455 kts | 62° |
| 2026-05-07 06:51 | 48.46300 | -46.45467 | 37213 ft | 455 kts | 62° |
| 2026-05-07 06:51 | 48.49035 | -46.36829 | 37214 ft | 456 kts | 62° |
| 2026-05-07 06:52 | 48.51767 | -46.28171 | 37213 ft | 456 kts | 62° |
| 2026-05-07 06:52 | 48.54473 | -46.19561 | 37213 ft | 457 kts | 62° |
| 2026-05-07 06:53 | 48.57193 | -46.10882 | 37213 ft | 457 kts | 62° |
| 2026-05-07 06:53 | 48.59890 | -46.02244 | 37213 ft | 457 kts | 62° |
| 2026-05-07 06:54 | 48.62596 | -45.93554 | 37212 ft | 457 kts | 62° |
| 2026-05-07 06:54 | 48.65291 | -45.84860 | 37214 ft | 457 kts | 62° |
| 2026-05-07 06:55 | 48.67986 | -45.76133 | 37212 ft | 457 kts | 62° |
| 2026-05-07 06:55 | 48.70655 | -45.67466 | 37210 ft | 456 kts | 62° |
| 2026-05-07 06:56 | 48.73335 | -45.58735 | 37213 ft | 456 kts | 62° |
| 2026-05-07 06:56 | 48.75552 | -45.51487 | 37213 ft | 456 kts | 62° |
| 2026-05-07 06:57 | 48.78215 | -45.42754 | 37212 ft | 456 kts | 62° |
| 2026-05-07 06:57 | 48.80871 | -45.34008 | 37213 ft | 455 kts | 62° |
| 2026-05-07 06:58 | 48.83499 | -45.25330 | 37212 ft | 455 kts | 62° |
| 2026-05-07 06:58 | 48.86130 | -45.16612 | 37207 ft | 453 kts | 62° |
| 2026-05-07 06:59 | 48.88750 | -45.07892 | 37210 ft | 453 kts | 62° |
| 2026-05-07 06:59 | 48.91357 | -44.99184 | 37212 ft | 452 kts | 62° |
| 2026-05-07 07:00 | 48.93957 | -44.90468 | 37208 ft | 451 kts | 62° |
| 2026-05-07 07:00 | 48.96548 | -44.81758 | 37212 ft | 451 kts | 62° |
| 2026-05-07 07:01 | 48.99133 | -44.73038 | 37212 ft | 452 kts | 62° |
| 2026-05-07 07:01 | 49.01694 | -44.64365 | 37210 ft | 452 kts | 62° |
| 2026-05-07 07:02 | 49.04270 | -44.55610 | 37213 ft | 452 kts | 62° |
| 2026-05-07 07:02 | 49.06836 | -44.46856 | 37206 ft | 452 kts | 62° |
| 2026-05-07 07:03 | 49.09399 | -44.38075 | 37202 ft | 453 kts | 62° |
| 2026-05-07 07:03 | 49.11940 | -44.29346 | 37202 ft | 453 kts | 62° |
| 2026-05-07 07:04 | 49.14493 | -44.20545 | 37201 ft | 453 kts | 62° |
| 2026-05-07 07:04 | 49.17035 | -44.11746 | 37203 ft | 453 kts | 62° |
| 2026-05-07 07:05 | 49.19581 | -44.02907 | 37198 ft | 453 kts | 62° |
| 2026-05-07 07:05 | 49.22120 | -43.94063 | 37201 ft | 453 kts | 62° |
| 2026-05-07 07:06 | 49.24624 | -43.85297 | 37203 ft | 452 kts | 62° |
| 2026-05-07 07:06 | 49.27134 | -43.76471 | 37201 ft | 451 kts | 62° |
| 2026-05-07 07:07 | 49.29633 | -43.67664 | 37203 ft | 450 kts | 62° |
| 2026-05-07 07:07 | 49.32120 | -43.58860 | 37203 ft | 449 kts | 62° |
| 2026-05-07 07:08 | 49.34583 | -43.50112 | 37204 ft | 449 kts | 62° |
| 2026-05-07 07:08 | 49.37051 | -43.41313 | 37203 ft | 449 kts | 62° |
| 2026-05-07 07:09 | 49.39513 | -43.32499 | 37204 ft | 449 kts | 62° |
| 2026-05-07 07:09 | 49.41969 | -43.23682 | 37205 ft | 449 kts | 62° |
| 2026-05-07 07:10 | 49.44422 | -43.14840 | 37203 ft | 449 kts | 62° |
| 2026-05-07 07:10 | 49.46854 | -43.06044 | 37204 ft | 449 kts | 62° |
| 2026-05-07 07:11 | 49.49291 | -42.97193 | 37202 ft | 450 kts | 62° |
| 2026-05-07 07:11 | 49.51722 | -42.88330 | 37203 ft | 449 kts | 62° |
| 2026-05-07 07:12 | 49.54145 | -42.79457 | 37203 ft | 449 kts | 62° |
| 2026-05-07 07:12 | 49.56565 | -42.70570 | 37204 ft | 449 kts | 62° |
| 2026-05-07 07:13 | 49.58979 | -42.61672 | 37234 ft | 449 kts | 62° |
| 2026-05-07 07:13 | 49.61363 | -42.52855 | 37238 ft | 449 kts | 62° |
| 2026-05-07 07:14 | 49.63760 | -42.43948 | 37235 ft | 448 kts | 62° |
| 2026-05-07 07:14 | 49.66145 | -42.35052 | 37237 ft | 448 kts | 62° |
| 2026-05-07 07:15 | 49.68516 | -42.26159 | 37238 ft | 448 kts | 62° |
| 2026-05-07 07:15 | 49.70871 | -42.17312 | 37241 ft | 447 kts | 62° |
| 2026-05-07 07:16 | 49.73231 | -42.08412 | 37247 ft | 447 kts | 62° |
| 2026-05-07 07:16 | 49.75584 | -41.99499 | 37238 ft | 447 kts | 62° |
| 2026-05-07 07:17 | 49.77924 | -41.90605 | 37237 ft | 446 kts | 62° |
| 2026-05-07 07:17 | 49.80242 | -41.81755 | 37238 ft | 445 kts | 62° |
| 2026-05-07 07:18 | 49.82563 | -41.72868 | 37237 ft | 445 kts | 62° |
| 2026-05-07 07:18 | 49.84878 | -41.63961 | 37241 ft | 445 kts | 62° |
| 2026-05-07 07:19 | 49.87184 | -41.55048 | 37233 ft | 446 kts | 62° |
| 2026-05-07 07:19 | 49.89490 | -41.46118 | 37230 ft | 446 kts | 62° |
| 2026-05-07 07:20 | 49.91788 | -41.37172 | 37229 ft | 446 kts | 62° |
| 2026-05-07 07:20 | 49.94079 | -41.28216 | 37229 ft | 446 kts | 62° |
| 2026-05-07 07:21 | 49.96350 | -41.19302 | 37229 ft | 447 kts | 62° |
| 2026-05-07 07:21 | 49.98640 | -41.10269 | 37229 ft | 448 kts | 63° |
| 2026-05-07 07:22 | 50.00921 | -41.01262 | 37230 ft | 448 kts | 62° |
| 2026-05-07 07:22 | 50.03180 | -40.92292 | 37227 ft | 448 kts | 63° |
| 2026-05-07 07:23 | 50.05443 | -40.83269 | 37228 ft | 447 kts | 63° |
| 2026-05-07 07:23 | 50.07693 | -40.74258 | 37231 ft | 446 kts | 63° |
| 2026-05-07 07:24 | 50.09937 | -40.65241 | 37227 ft | 446 kts | 62° |
| 2026-05-07 07:24 | 50.12172 | -40.56221 | 37232 ft | 445 kts | 63° |
| 2026-05-07 07:25 | 50.15488 | -40.42774 | 37228 ft | 444 kts | 63° |
| 2026-05-07 07:26 | 50.17698 | -40.33765 | 37232 ft | 444 kts | 63° |
| 2026-05-07 07:26 | 50.19898 | -40.24758 | 37229 ft | 443 kts | 63° |
| 2026-05-07 07:27 | 50.22088 | -40.15756 | 37231 ft | 443 kts | 63° |
| 2026-05-07 07:27 | 50.24275 | -40.06740 | 37231 ft | 443 kts | 63° |
| 2026-05-07 07:28 | 50.26436 | -39.97786 | 37229 ft | 443 kts | 63° |
| 2026-05-07 07:28 | 50.28609 | -39.88753 | 37231 ft | 443 kts | 63° |
| 2026-05-07 07:29 | 50.30773 | -39.79717 | 37230 ft | 444 kts | 63° |
| 2026-05-07 07:29 | 50.32933 | -39.70653 | 37231 ft | 444 kts | 63° |
| 2026-05-07 07:30 | 50.35088 | -39.61584 | 37232 ft | 444 kts | 63° |
| 2026-05-07 07:30 | 50.37223 | -39.52554 | 37232 ft | 445 kts | 63° |
| 2026-05-07 07:31 | 50.39370 | -39.43440 | 37231 ft | 445 kts | 63° |
| 2026-05-07 07:31 | 50.41511 | -39.34315 | 37230 ft | 446 kts | 63° |
| 2026-05-07 07:32 | 50.43633 | -39.25229 | 37231 ft | 446 kts | 63° |
| 2026-05-07 07:32 | 50.45759 | -39.16076 | 37229 ft | 447 kts | 63° |
| 2026-05-07 07:33 | 50.47886 | -39.06894 | 37228 ft | 447 kts | 63° |
| 2026-05-07 07:33 | 50.50003 | -38.97712 | 37228 ft | 447 kts | 64° |
| 2026-05-07 07:34 | 50.52115 | -38.88511 | 37230 ft | 447 kts | 64° |
| 2026-05-07 07:34 | 50.54209 | -38.79350 | 37228 ft | 448 kts | 64° |
| 2026-05-07 07:35 | 50.56310 | -38.70121 | 37230 ft | 448 kts | 64° |
| 2026-05-07 07:35 | 50.58400 | -38.60892 | 37231 ft | 448 kts | 64° |
| 2026-05-07 07:36 | 50.60487 | -38.51650 | 37230 ft | 447 kts | 64° |
| 2026-05-07 07:36 | 50.62563 | -38.42402 | 37230 ft | 447 kts | 64° |
| 2026-05-07 07:37 | 50.64615 | -38.33224 | 37231 ft | 447 kts | 64° |
| 2026-05-07 07:37 | 50.66672 | -38.23984 | 37231 ft | 447 kts | 64° |
| 2026-05-07 07:38 | 50.68726 | -38.14718 | 37229 ft | 447 kts | 64° |
| 2026-05-07 07:38 | 50.70773 | -38.05440 | 37228 ft | 447 kts | 64° |
| 2026-05-07 07:39 | 50.72794 | -37.96242 | 37233 ft | 447 kts | 64° |
| 2026-05-07 07:39 | 50.74825 | -37.86954 | 37230 ft | 446 kts | 65° |
| 2026-05-07 07:40 | 50.76844 | -37.77682 | 37231 ft | 446 kts | 65° |
| 2026-05-07 07:40 | 50.78856 | -37.68415 | 37232 ft | 446 kts | 65° |
| 2026-05-07 07:41 | 50.80855 | -37.59143 | 37232 ft | 445 kts | 65° |
| 2026-05-07 07:41 | 50.82840 | -37.49907 | 37231 ft | 445 kts | 65° |
| 2026-05-07 07:42 | 50.84827 | -37.40612 | 37230 ft | 445 kts | 65° |
| 2026-05-07 07:42 | 50.86805 | -37.31309 | 37232 ft | 445 kts | 65° |
| 2026-05-07 07:43 | 50.88442 | -37.23578 | 37230 ft | 445 kts | 65° |
| 2026-05-07 07:43 | 50.90402 | -37.14284 | 37233 ft | 444 kts | 65° |
| 2026-05-07 07:44 | 50.92356 | -37.04989 | 37229 ft | 445 kts | 65° |
| 2026-05-07 07:44 | 50.94304 | -36.95677 | 37215 ft | 445 kts | 65° |
| 2026-05-07 07:45 | 50.96241 | -36.86348 | 37213 ft | 445 kts | 65° |
| 2026-05-07 07:45 | 50.98173 | -36.77031 | 37210 ft | 444 kts | 65° |
| 2026-05-07 07:46 | 51.00102 | -36.67705 | 37210 ft | 445 kts | 65° |
| 2026-05-07 07:46 | 51.02005 | -36.58428 | 37214 ft | 445 kts | 65° |
| 2026-05-07 07:47 | 51.03916 | -36.49072 | 37210 ft | 445 kts | 65° |
| 2026-05-07 07:47 | 51.05808 | -36.39763 | 37212 ft | 444 kts | 65° |
| 2026-05-07 07:48 | 51.07701 | -36.30399 | 37211 ft | 444 kts | 65° |
| 2026-05-07 07:48 | 51.09588 | -36.21032 | 37211 ft | 444 kts | 65° |
| 2026-05-07 07:49 | 51.11458 | -36.11709 | 37212 ft | 443 kts | 65° |
| 2026-05-07 07:49 | 51.13322 | -36.02371 | 37207 ft | 442 kts | 66° |
| 2026-05-07 07:50 | 51.15166 | -35.93084 | 37218 ft | 442 kts | 66° |
| 2026-05-07 07:50 | 51.17014 | -35.83724 | 37211 ft | 442 kts | 66° |
| 2026-05-07 07:51 | 51.18854 | -35.74359 | 37212 ft | 442 kts | 66° |
| 2026-05-07 07:51 | 51.20690 | -35.64977 | 37213 ft | 442 kts | 66° |
| 2026-05-07 07:52 | 51.22512 | -35.55615 | 37212 ft | 442 kts | 66° |
| 2026-05-07 07:52 | 51.24328 | -35.46241 | 37210 ft | 442 kts | 66° |
| 2026-05-07 07:53 | 51.26129 | -35.36902 | 37213 ft | 442 kts | 66° |
| 2026-05-07 07:53 | 51.27930 | -35.27510 | 37211 ft | 442 kts | 66° |
| 2026-05-07 07:54 | 51.29727 | -35.18095 | 37214 ft | 442 kts | 66° |
| 2026-05-07 07:54 | 51.31521 | -35.08660 | 37212 ft | 443 kts | 66° |
| 2026-05-07 07:55 | 51.33292 | -34.99290 | 37211 ft | 443 kts | 66° |
| 2026-05-07 07:55 | 51.35069 | -34.89838 | 37215 ft | 443 kts | 66° |
| 2026-05-07 07:56 | 51.36833 | -34.80403 | 37209 ft | 442 kts | 66° |
| 2026-05-07 07:56 | 51.38592 | -34.70968 | 37214 ft | 443 kts | 66° |
| 2026-05-07 07:57 | 51.40342 | -34.61503 | 37215 ft | 443 kts | 67° |
| 2026-05-07 07:57 | 51.42077 | -34.52071 | 37212 ft | 444 kts | 67° |
| 2026-05-07 07:58 | 51.43820 | -34.42562 | 37210 ft | 444 kts | 67° |
| 2026-05-07 07:58 | 51.45560 | -34.33039 | 37213 ft | 444 kts | 67° |
| 2026-05-07 07:59 | 51.47291 | -34.23501 | 37213 ft | 445 kts | 67° |
| 2026-05-07 07:59 | 51.49005 | -34.13920 | 37222 ft | 448 kts | 67° |
| 2026-05-07 08:00 | 51.50741 | -34.04359 | 37208 ft | 450 kts | 68° |
| 2026-05-07 08:00 | 51.52469 | -33.94684 | 37207 ft | 449 kts | 68° |
| 2026-05-07 08:01 | 51.54181 | -33.85035 | 37209 ft | 449 kts | 68° |
| 2026-05-07 08:01 | 51.55873 | -33.75447 | 37206 ft | 447 kts | 68° |
| 2026-05-07 08:02 | 51.57562 | -33.65812 | 37207 ft | 447 kts | 68° |
| 2026-05-07 08:02 | 51.59247 | -33.56177 | 37211 ft | 446 kts | 68° |
| 2026-05-07 08:03 | 51.60904 | -33.46647 | 37215 ft | 444 kts | 68° |
| 2026-05-07 08:03 | 51.62560 | -33.37068 | 37211 ft | 444 kts | 68° |
| 2026-05-07 08:04 | 51.64207 | -33.27487 | 37214 ft | 444 kts | 68° |
| 2026-05-07 08:04 | 51.65853 | -33.17879 | 37214 ft | 444 kts | 68° |
| 2026-05-07 08:05 | 51.67479 | -33.08318 | 37208 ft | 445 kts | 68° |
| 2026-05-07 08:05 | 51.69111 | -32.98679 | 37213 ft | 445 kts | 69° |
| 2026-05-07 08:06 | 51.70728 | -32.89081 | 37213 ft | 446 kts | 69° |
| 2026-05-07 08:06 | 51.72341 | -32.79410 | 37211 ft | 447 kts | 69° |
| 2026-05-07 08:07 | 51.73956 | -32.69696 | 37214 ft | 448 kts | 69° |
| 2026-05-07 08:07 | 51.75556 | -32.60032 | 37212 ft | 448 kts | 69° |
| 2026-05-07 08:08 | 51.77163 | -32.50283 | 37217 ft | 449 kts | 69° |
| 2026-05-07 08:08 | 51.78751 | -32.40533 | 37208 ft | 449 kts | 69° |
| 2026-05-07 08:09 | 51.80341 | -32.30787 | 37211 ft | 448 kts | 69° |
| 2026-05-07 08:09 | 51.81922 | -32.21023 | 37211 ft | 448 kts | 69° |
| 2026-05-07 08:10 | 51.83473 | -32.11324 | 37212 ft | 447 kts | 70° |
| 2026-05-07 08:10 | 51.85023 | -32.01596 | 37212 ft | 445 kts | 69° |
| 2026-05-07 08:11 | 51.86563 | -31.91911 | 37210 ft | 444 kts | 69° |
| 2026-05-07 08:11 | 51.88084 | -31.82262 | 37206 ft | 445 kts | 69° |
| 2026-05-07 08:12 | 51.89623 | -31.72555 | 37211 ft | 446 kts | 69° |
| 2026-05-07 08:12 | 51.91149 | -31.62790 | 37216 ft | 448 kts | 70° |
| 2026-05-07 08:13 | 51.92679 | -31.52942 | 37210 ft | 452 kts | 69° |
| 2026-05-07 08:13 | 51.94223 | -31.43038 | 37214 ft | 452 kts | 70° |
| 2026-05-07 08:14 | 51.95722 | -31.33137 | 37204 ft | 453 kts | 70° |
| 2026-05-07 08:14 | 51.97214 | -31.23268 | 37212 ft | 452 kts | 71° |
| 2026-05-07 08:15 | 51.98703 | -31.13370 | 37211 ft | 451 kts | 71° |
| 2026-05-07 08:15 | 52.00190 | -31.03480 | 37198 ft | 451 kts | 71° |
| 2026-05-07 08:16 | 52.01668 | -30.93603 | 37171 ft | 448 kts | 70° |
| 2026-05-07 08:16 | 52.03131 | -30.83833 | 37178 ft | 449 kts | 71° |
| 2026-05-07 08:17 | 52.04577 | -30.73929 | 37172 ft | 450 kts | 71° |
| 2026-05-07 08:17 | 52.06025 | -30.64060 | 37168 ft | 452 kts | 71° |
| 2026-05-07 08:18 | 52.07476 | -30.54049 | 37168 ft | 456 kts | 71° |
| 2026-05-07 08:18 | 52.08973 | -30.43985 | 37159 ft | 459 kts | 71° |
| 2026-05-07 08:19 | 52.10408 | -30.33855 | 37166 ft | 460 kts | 72° |
| 2026-05-07 08:19 | 52.11836 | -30.23772 | 37155 ft | 460 kts | 71° |
| 2026-05-07 08:20 | 52.13286 | -30.13643 | 37160 ft | 459 kts | 72° |
| 2026-05-07 08:20 | 52.14695 | -30.03543 | 37159 ft | 456 kts | 72° |
| 2026-05-07 08:21 | 52.16127 | -29.93486 | 37139 ft | 455 kts | 72° |
| 2026-05-07 08:21 | 52.17526 | -29.83451 | 37154 ft | 453 kts | 72° |
| 2026-05-07 08:22 | 52.18894 | -29.73490 | 37143 ft | 453 kts | 72° |
| 2026-05-07 08:22 | 52.20231 | -29.63439 | 37153 ft | 454 kts | 72° |
| 2026-05-07 08:23 | 52.21603 | -29.53409 | 37145 ft | 453 kts | 72° |
| 2026-05-07 08:23 | 52.22985 | -29.43376 | 37138 ft | 453 kts | 72° |
| 2026-05-07 08:24 | 52.24344 | -29.33329 | 37152 ft | 454 kts | 73° |
| 2026-05-07 08:24 | 52.25686 | -29.23300 | 37149 ft | 456 kts | 73° |
| 2026-05-07 08:25 | 52.27027 | -29.13162 | 37157 ft | 458 kts | 73° |
| 2026-05-07 08:25 | 52.28370 | -29.02974 | 37150 ft | 460 kts | 73° |
| 2026-05-07 08:26 | 52.30375 | -28.87671 | 37154 ft | 461 kts | 73° |
| 2026-05-07 08:26 | 52.31684 | -28.77407 | 37163 ft | 462 kts | 74° |
| 2026-05-07 08:27 | 52.33007 | -28.67099 | 37160 ft | 464 kts | 74° |
| 2026-05-07 08:27 | 52.34336 | -28.56764 | 37157 ft | 464 kts | 74° |
| 2026-05-07 08:28 | 52.35650 | -28.46406 | 37157 ft | 465 kts | 74° |
| 2026-05-07 08:28 | 52.36953 | -28.36035 | 37158 ft | 465 kts | 74° |
| 2026-05-07 08:29 | 52.38250 | -28.25680 | 37155 ft | 465 kts | 75° |
| 2026-05-07 08:29 | 52.39532 | -28.15313 | 37159 ft | 463 kts | 75° |
| 2026-05-07 08:30 | 52.40789 | -28.05044 | 37155 ft | 462 kts | 75° |
| 2026-05-07 08:30 | 52.42042 | -27.94726 | 37154 ft | 461 kts | 75° |
| 2026-05-07 08:31 | 52.43294 | -27.84386 | 37160 ft | 461 kts | 75° |
| 2026-05-07 08:31 | 52.44533 | -27.74055 | 37158 ft | 462 kts | 75° |
| 2026-05-07 08:32 | 52.45753 | -27.63793 | 37154 ft | 461 kts | 75° |
| 2026-05-07 08:32 | 52.46976 | -27.53471 | 37158 ft | 461 kts | 75° |
| 2026-05-07 08:33 | 52.48189 | -27.43133 | 37158 ft | 462 kts | 76° |
| 2026-05-07 08:33 | 52.49390 | -27.32781 | 37158 ft | 462 kts | 76° |
| 2026-05-07 08:34 | 52.50588 | -27.22382 | 37159 ft | 464 kts | 76° |
| 2026-05-07 08:34 | 52.51774 | -27.12000 | 37161 ft | 466 kts | 76° |
| 2026-05-07 08:35 | 52.52763 | -27.03278 | 37159 ft | 467 kts | 76° |
| 2026-05-07 08:35 | 52.53948 | -26.92751 | 37150 ft | 469 kts | 76° |
| 2026-05-07 08:36 | 52.55128 | -26.82203 | 37147 ft | 470 kts | 77° |
| 2026-05-07 08:36 | 52.56299 | -26.71615 | 37133 ft | 470 kts | 77° |
| 2026-05-07 08:37 | 52.57453 | -26.61096 | 37128 ft | 470 kts | 77° |
| 2026-05-07 08:37 | 52.58607 | -26.50484 | 37127 ft | 470 kts | 77° |
| 2026-05-07 08:38 | 52.59751 | -26.39883 | 37129 ft | 470 kts | 77° |
| 2026-05-07 08:38 | 52.60879 | -26.29312 | 37125 ft | 469 kts | 77° |
| 2026-05-07 08:39 | 52.61990 | -26.18820 | 37127 ft | 469 kts | 77° |
| 2026-05-07 08:39 | 52.63101 | -26.08249 | 37130 ft | 468 kts | 78° |
| 2026-05-07 08:40 | 52.64204 | -25.97666 | 37130 ft | 468 kts | 78° |
| 2026-05-07 08:40 | 52.65296 | -25.87080 | 37125 ft | 468 kts | 78° |
| 2026-05-07 08:41 | 52.66375 | -25.76504 | 37128 ft | 468 kts | 78° |
| 2026-05-07 08:41 | 52.67443 | -25.65989 | 37137 ft | 468 kts | 78° |
| 2026-05-07 08:42 | 52.68505 | -25.55387 | 37128 ft | 468 kts | 78° |
| 2026-05-07 08:42 | 52.69557 | -25.44794 | 37140 ft | 469 kts | 79° |
| 2026-05-07 08:43 | 52.70604 | -25.34165 | 37139 ft | 470 kts | 79° |
| 2026-05-07 08:43 | 52.71644 | -25.23502 | 37141 ft | 471 kts | 79° |
| 2026-05-07 08:44 | 52.72669 | -25.12878 | 37138 ft | 472 kts | 79° |
| 2026-05-07 08:44 | 52.73693 | -25.02168 | 37141 ft | 473 kts | 79° |
| 2026-05-07 08:45 | 52.74711 | -24.91421 | 37140 ft | 474 kts | 79° |
| 2026-05-07 08:45 | 52.75721 | -24.80643 | 37141 ft | 475 kts | 79° |
| 2026-05-07 08:46 | 52.76724 | -24.69847 | 37136 ft | 476 kts | 80° |
| 2026-05-07 08:46 | 52.77717 | -24.59025 | 37138 ft | 476 kts | 80° |
| 2026-05-07 08:47 | 52.78700 | -24.48191 | 37139 ft | 477 kts | 80° |
| 2026-05-07 08:47 | 52.79666 | -24.37435 | 37141 ft | 477 kts | 80° |
| 2026-05-07 08:48 | 52.80632 | -24.26594 | 37138 ft | 476 kts | 80° |
| 2026-05-07 08:48 | 52.81588 | -24.15736 | 37139 ft | 477 kts | 80° |
| 2026-05-07 08:49 | 52.82533 | -24.04892 | 37106 ft | 477 kts | 81° |
| 2026-05-07 08:49 | 52.83463 | -23.94090 | 37098 ft | 478 kts | 81° |
| 2026-05-07 08:50 | 52.84390 | -23.83209 | 37091 ft | 477 kts | 81° |
| 2026-05-07 08:50 | 52.85303 | -23.72338 | 37092 ft | 476 kts | 81° |
| 2026-05-07 08:51 | 52.86210 | -23.61444 | 37068 ft | 477 kts | 81° |
| 2026-05-07 08:51 | 52.87107 | -23.50561 | 37069 ft | 477 kts | 81° |
| 2026-05-07 08:52 | 52.87992 | -23.39695 | 37073 ft | 477 kts | 82° |
| 2026-05-07 08:52 | 52.88864 | -23.28854 | 37072 ft | 477 kts | 82° |
| 2026-05-07 08:53 | 52.89728 | -23.17963 | 37073 ft | 477 kts | 82° |
| 2026-05-07 08:53 | 52.90583 | -23.07075 | 37075 ft | 477 kts | 82° |
| 2026-05-07 08:54 | 52.91432 | -22.96149 | 37076 ft | 477 kts | 82° |
| 2026-05-07 08:54 | 52.92270 | -22.85224 | 37074 ft | 478 kts | 82° |
| 2026-05-07 08:55 | 52.93096 | -22.74336 | 37076 ft | 478 kts | 82° |
| 2026-05-07 08:55 | 52.93915 | -22.63391 | 37065 ft | 478 kts | 83° |
| 2026-05-07 08:56 | 52.94724 | -22.52427 | 37065 ft | 479 kts | 83° |
| 2026-05-07 08:56 | 52.95525 | -22.41422 | 37057 ft | 479 kts | 83° |
| 2026-05-07 08:57 | 52.96310 | -22.30500 | 37052 ft | 479 kts | 83° |
| 2026-05-07 08:57 | 52.97088 | -22.19558 | 37056 ft | 479 kts | 83° |
| 2026-05-07 08:58 | 52.97858 | -22.08560 | 37055 ft | 479 kts | 83° |
| 2026-05-07 08:58 | 52.98612 | -21.97628 | 37058 ft | 479 kts | 83° |
| 2026-05-07 08:59 | 52.99361 | -21.86646 | 37055 ft | 479 kts | 84° |
| 2026-05-07 08:59 | 53.00101 | -21.75655 | 37056 ft | 479 kts | 84° |
| 2026-05-07 09:00 | 53.00831 | -21.64618 | 37056 ft | 479 kts | 84° |
| 2026-05-07 09:00 | 53.01548 | -21.53627 | 37054 ft | 479 kts | 84° |
| 2026-05-07 09:01 | 53.02252 | -21.42679 | 37054 ft | 479 kts | 84° |
| 2026-05-07 09:01 | 53.02952 | -21.31647 | 37050 ft | 480 kts | 84° |
| 2026-05-07 09:02 | 53.03639 | -21.20630 | 37056 ft | 479 kts | 84° |
| 2026-05-07 09:02 | 53.04319 | -21.09601 | 37053 ft | 480 kts | 84° |
| 2026-05-07 09:03 | 53.04987 | -20.98576 | 37054 ft | 480 kts | 85° |
| 2026-05-07 09:03 | 53.05648 | -20.87504 | 37050 ft | 480 kts | 85° |
| 2026-05-07 09:04 | 53.06293 | -20.76525 | 37044 ft | 480 kts | 85° |
| 2026-05-07 09:04 | 53.06932 | -20.65458 | 37041 ft | 480 kts | 85° |
| 2026-05-07 09:05 | 53.07558 | -20.54423 | 37038 ft | 480 kts | 85° |
| 2026-05-07 09:05 | 53.08177 | -20.43356 | 37050 ft | 480 kts | 85° |
| 2026-05-07 09:06 | 53.08786 | -20.32263 | 37048 ft | 481 kts | 85° |
| 2026-05-07 09:06 | 53.09387 | -20.21159 | 37044 ft | 482 kts | 85° |
| 2026-05-07 09:07 | 53.09975 | -20.10073 | 36995 ft | 484 kts | 85° |
| 2026-05-07 09:07 | 53.10532 | -19.98917 | 36991 ft | 485 kts | 88° |
| 2026-05-07 09:08 | 53.10601 | -19.87661 | 36998 ft | 484 kts | 91° |
| 2026-05-07 09:08 | 53.10523 | -19.76440 | 36988 ft | 484 kts | 91° |
| 2026-05-07 09:09 | 53.10453 | -19.65309 | 36990 ft | 484 kts | 91° |
| 2026-05-07 09:09 | 53.10404 | -19.54088 | 36991 ft | 484 kts | 91° |
| 2026-05-07 09:10 | 53.10358 | -19.42893 | 36989 ft | 484 kts | 91° |
| 2026-05-07 09:10 | 53.10301 | -19.31719 | 36997 ft | 483 kts | 91° |
| 2026-05-07 09:11 | 53.10231 | -19.20472 | 36990 ft | 483 kts | 91° |
| 2026-05-07 09:11 | 53.10151 | -19.09347 | 36979 ft | 483 kts | 91° |
| 2026-05-07 09:12 | 53.10061 | -18.98178 | 36980 ft | 482 kts | 92° |
| 2026-05-07 09:12 | 53.09960 | -18.87015 | 36981 ft | 482 kts | 92° |
| 2026-05-07 09:13 | 53.09850 | -18.75904 | 36982 ft | 481 kts | 92° |
| 2026-05-07 09:13 | 53.09729 | -18.64809 | 36982 ft | 481 kts | 92° |
| 2026-05-07 09:14 | 53.09599 | -18.53704 | 36977 ft | 481 kts | 92° |
| 2026-05-07 09:14 | 53.09457 | -18.42571 | 36965 ft | 481 kts | 92° |
| 2026-05-07 09:15 | 53.09305 | -18.31463 | 36963 ft | 481 kts | 92° |
| 2026-05-07 09:15 | 53.09142 | -18.20320 | 36964 ft | 481 kts | 93° |
| 2026-05-07 09:16 | 53.08968 | -18.09210 | 36964 ft | 481 kts | 93° |
| 2026-05-07 09:16 | 53.08787 | -17.98133 | 36961 ft | 480 kts | 93° |
| 2026-05-07 09:17 | 53.08594 | -17.86986 | 36967 ft | 480 kts | 93° |
| 2026-05-07 09:17 | 53.08390 | -17.75883 | 36974 ft | 481 kts | 93° |
| 2026-05-07 09:18 | 53.08285 | -17.70379 | 37141 ft | 481 kts | 93° |
| 2026-05-07 09:18 | 53.08176 | -17.64805 | 37414 ft | 479 kts | 93° |
| 2026-05-07 09:18 | 53.08066 | -17.59283 | 37694 ft | 476 kts | 93° |
| 2026-05-07 09:18 | 53.07954 | -17.53783 | 37927 ft | 475 kts | 93° |
| 2026-05-07 09:19 | 53.07839 | -17.48306 | 38094 ft | 476 kts | 93° |
| 2026-05-07 09:19 | 53.07721 | -17.42783 | 38209 ft | 477 kts | 93° |
| 2026-05-07 09:19 | 53.07599 | -17.37247 | 38317 ft | 479 kts | 93° |
| 2026-05-07 09:19 | 53.07475 | -17.31704 | 38439 ft | 480 kts | 93° |
| 2026-05-07 09:20 | 53.07351 | -17.26231 | 38598 ft | 480 kts | 93° |
| 2026-05-07 09:20 | 53.07223 | -17.20687 | 38779 ft | 480 kts | 93° |
| 2026-05-07 09:20 | 53.07092 | -17.15157 | 38938 ft | 478 kts | 93° |
| 2026-05-07 09:20 | 53.06958 | -17.09618 | 38942 ft | 480 kts | 93° |
| 2026-05-07 09:21 | 53.06682 | -16.98491 | 38953 ft | 481 kts | 94° |
| 2026-05-07 09:21 | 53.06396 | -16.87389 | 38950 ft | 479 kts | 94° |
| 2026-05-07 09:22 | 53.06100 | -16.76316 | 38959 ft | 479 kts | 94° |
| 2026-05-07 09:22 | 53.05782 | -16.65262 | 38957 ft | 477 kts | 94° |
| 2026-05-07 09:23 | 53.05473 | -16.54308 | 38950 ft | 476 kts | 94° |
| 2026-05-07 09:23 | 53.05156 | -16.43315 | 38953 ft | 476 kts | 94° |
| 2026-05-07 09:24 | 53.04822 | -16.32314 | 38953 ft | 476 kts | 94° |